NOAA Web Site Link Tides and Currents Home Page Transparent placeholder image

PORTS® Data Listing: 8720233 Blount Island Command, FL

CO-OPS RAW PORTS DATA

************************      PRELIMINARY DATA      ************************** 

     THIS RAW DATA HAS NOT BEEN SUBJECT TO THE NATIONAL OCEAN SERVICE'S        
     QUALITY CONTROL OR QUALITY ASSURANCE PROCEDURES AND DOES NOT MEET         
     THE CRITERIA AND STANDARDS OF OFFICIAL NATIONAL OCEAN SERVICE             
     DATA.  IT IS RELEASED FOR LIMITED PUBLIC USE AS PRELIMINARY DATA TO       
     BE USED ONLY WITH APPROPRIATE CAUTION.                                    

************************      PRELIMINARY DATA      ************************** 


       CD   -   Calendar date
       T    -   Time
       TZ   -   Timezone
       PW   -   Predicted water level (feet above MLLW)
       OW   -   Observed water level (feet above MLLW)
       WS   -   Wind speed (knots)
       WD   -   Wind direction (degrees true)
       WG   -   Wind gust (knots)
       AT   -   Air temperature (degrees farenheit)
       WT   -   Water temperature (degrees farenheit)
       AP   -   Air pressure (millibars)
       SA   -   Salinty (PSU - Practical Salinity Units)
       SG   -   Specific gravity
       RH   -   Relative humidity
       AG   -   Air gap (feet)
       VI   -   Visibility (nautical miles)

       ** NOTE **
       A variable that has its data fields filled with "9"s, indicates that
       data was not collected for that sample period.
       **********


STATION NAME: Blount Island Command (8720233)
****************************************************************************************************
    CD       T    TZ    PW     OW    WS   WD   WG    AT    WT    AP    SA    SG     RH    AG   VI
****************************************************************************************************
2019/06/24 05:42 EDT  -99.99 -99.99    2  206    4  79.2 -99.9 1016.9 -9.9 -9.999  90.2 -99.99  5.40
2019/06/24 05:48 EDT  -99.99 -99.99    3  221    3  79.0 -99.9 1016.9 -9.9 -9.999  90.8 -99.99  5.40
2019/06/24 05:54 EDT  -99.99 -99.99    3  224    3  79.0 -99.9 1016.9 -9.9 -9.999  90.7 -99.99  5.40
2019/06/24 06:00 EDT  -99.99 -99.99    3  215    4  79.2 -99.9 1016.9 -9.9 -9.999  91.1 -99.99  5.40
2019/06/24 06:06 EDT  -99.99 -99.99    3  198    3  79.0 -99.9 1016.9 -9.9 -9.999  92.0 -99.99  5.40
2019/06/24 06:12 EDT  -99.99 -99.99    3  218    4  78.8 -99.9 1017.0 -9.9 -9.999  92.3 -99.99  5.40
2019/06/24 06:18 EDT  -99.99 -99.99    3  227    4  78.8 -99.9 1017.0 -9.9 -9.999  92.0 -99.99  5.40
2019/06/24 06:24 EDT  -99.99 -99.99    3  223    4  79.2 -99.9 1017.1 -9.9 -9.999  91.8 -99.99  5.40
2019/06/24 06:30 EDT  -99.99 -99.99    4  217    4  79.2 -99.9 1017.1 -9.9 -9.999  92.7 -99.99  5.40
2019/06/24 06:36 EDT  -99.99 -99.99    4  213    4  79.0 -99.9 1017.1 -9.9 -9.999  93.2 -99.99  5.40
2019/06/24 06:42 EDT  -99.99 -99.99    4  213    4  79.0 -99.9 1017.1 -9.9 -9.999  94.2 -99.99  5.40
2019/06/24 06:48 EDT  -99.99 -99.99    4  214    5  78.8 -99.9 1017.2 -9.9 -9.999  94.6 -99.99  5.40
2019/06/24 06:54 EDT  -99.99 -99.99    5  202    6  78.8 -99.9 1017.2 -9.9 -9.999  94.9 -99.99  5.40
2019/06/24 07:00 EDT  -99.99 -99.99    4  205    5  78.8 -99.9 1017.2 -9.9 -9.999  95.4 -99.99  5.40
2019/06/24 07:06 EDT  -99.99 -99.99    4  213    5  78.8 -99.9 1017.2 -9.9 -9.999  96.3 -99.99  5.40
2019/06/24 07:12 EDT  -99.99 -99.99    4  216    4  79.0 -99.9 1017.3 -9.9 -9.999  96.9 -99.99  5.40
2019/06/24 07:18 EDT  -99.99 -99.99    4  224    5  78.8 -99.9 1017.3 -9.9 -9.999  97.3 -99.99  5.40
2019/06/24 07:24 EDT  -99.99 -99.99    3  218    4  79.2 -99.9 1017.3 -9.9 -9.999  95.7 -99.99  5.40
2019/06/24 07:30 EDT  -99.99 -99.99    3  235    4  79.3 -99.9 1017.3 -9.9 -9.999  95.0 -99.99  5.40
2019/06/24 07:36 EDT  -99.99 -99.99    4  231    4  79.5 -99.9 1017.4 -9.9 -9.999  95.1 -99.99  5.40
2019/06/24 07:42 EDT  -99.99 -99.99    4  232    4  79.7 -99.9 1017.4 -9.9 -9.999  95.3 -99.99  5.40
2019/06/24 07:48 EDT  -99.99 -99.99    4  226    5  79.9 -99.9 1017.5 -9.9 -9.999  94.8 -99.99  5.40
2019/06/24 07:54 EDT  -99.99 -99.99    5  232    6  79.9 -99.9 1017.4 -9.9 -9.999  94.8 -99.99  5.40
2019/06/24 08:00 EDT  -99.99 -99.99    4  245    6  80.1 -99.9 1017.5 -9.9 -9.999  95.1 -99.99  5.40
2019/06/24 08:06 EDT  -99.99 -99.99    4  247    6  80.4 -99.9 1017.6 -9.9 -9.999  95.7 -99.99  5.40
2019/06/24 08:12 EDT  -99.99 -99.99    5  268    6  80.6 -99.9 1017.7 -9.9 -9.999  95.3 -99.99  5.40
2019/06/24 08:18 EDT  -99.99 -99.99    5  252    6  80.8 -99.9 1017.6 -9.9 -9.999  94.3 -99.99  5.40
2019/06/24 08:24 EDT  -99.99 -99.99    4  262    6  81.0 -99.9 1017.7 -9.9 -9.999  94.9 -99.99  5.40
2019/06/24 08:30 EDT  -99.99 -99.99    6  260    9  81.5 -99.9 1017.7 -9.9 -9.999  94.1 -99.99  5.40
2019/06/24 08:36 EDT  -99.99 -99.99    8  268   10  81.7 -99.9 1017.8 -9.9 -9.999  94.1 -99.99  5.40
2019/06/24 08:42 EDT  -99.99 -99.99    6  278    9  82.0 -99.9 1017.8 -9.9 -9.999  93.5 -99.99  5.40
2019/06/24 08:48 EDT  -99.99 -99.99    7  271   12  82.4 -99.9 1018.0 -9.9 -9.999  93.2 -99.99  5.40
2019/06/24 08:54 EDT  -99.99 -99.99    7  279   10  82.4 -99.9 1018.0 -9.9 -9.999  92.2 -99.99  5.40
2019/06/24 09:00 EDT  -99.99 -99.99    7  278    9  82.4 -99.9 1018.0 -9.9 -9.999  91.1 -99.99  5.40
2019/06/24 09:06 EDT  -99.99 -99.99    9  281   11  83.1 -99.9 1018.0 -9.9 -9.999  89.7 -99.99  5.40
2019/06/24 09:12 EDT  -99.99 -99.99    8  297   10  82.9 -99.9 1018.0 -9.9 -9.999  88.9 -99.99  5.40
2019/06/24 09:18 EDT  -99.99 -99.99    9  293   12  83.5 -99.9 1018.0 -9.9 -9.999  88.0 -99.99  5.40
2019/06/24 09:24 EDT  -99.99 -99.99    8  284   11  83.8 -99.9 1018.1 -9.9 -9.999  84.3 -99.99  5.40
2019/06/24 09:30 EDT  -99.99 -99.99    9  296   11  84.0 -99.9 1018.2 -9.9 -9.999  82.9 -99.99  5.40
2019/06/24 09:36 EDT  -99.99 -99.99    7  282   10  84.4 -99.9 1018.2 -9.9 -9.999  81.7 -99.99  5.40
2019/06/24 09:42 EDT  -99.99 -99.99    7  291   11  84.4 -99.9 1018.2 -9.9 -9.999  81.6 -99.99  5.40
2019/06/24 09:48 EDT  -99.99 -99.99    5  290   10  84.9 -99.9 1018.2 -9.9 -9.999  80.3 -99.99  5.40
2019/06/24 09:54 EDT  -99.99 -99.99    7  278   10  85.3 -99.9 1018.1 -9.9 -9.999  80.4 -99.99  5.40
2019/06/24 10:00 EDT  -99.99 -99.99    7  289   10  84.7 -99.9 1018.1 -9.9 -9.999  79.7 -99.99  5.40
2019/06/24 10:06 EDT  -99.99 -99.99    6  283    8  85.5 -99.9 1018.2 -9.9 -9.999  77.9 -99.99  5.40
2019/06/24 10:12 EDT  -99.99 -99.99    4  283    8  85.6 -99.9 1018.1 -9.9 -9.999  76.6 -99.99  5.40
2019/06/24 10:18 EDT  -99.99 -99.99    6  317    9  86.0 -99.9 1018.2 -9.9 -9.999  76.6 -99.99  5.40
2019/06/24 10:24 EDT  -99.99 -99.99    5  294    8  86.5 -99.9 1018.1 -9.9 -9.999  73.1 -99.99  5.40
2019/06/24 10:30 EDT  -99.99 -99.99    5  292    8  86.5 -99.9 1018.1 -9.9 -9.999  72.8 -99.99  5.40
2019/06/24 10:36 EDT  -99.99 -99.99    4  313    8  86.4 -99.9 1018.1 -9.9 -9.999  74.4 -99.99  5.40
2019/06/24 10:42 EDT  -99.99 -99.99    4  297    7  86.7 -99.9 1018.1 -9.9 -9.999  72.8 -99.99  5.40
2019/06/24 10:48 EDT  -99.99 -99.99    4  315    8  86.7 -99.9 1018.1 -9.9 -9.999  72.8 -99.99  5.40
2019/06/24 10:54 EDT  -99.99 -99.99    5  298    7  87.4 -99.9 1018.1 -9.9 -9.999  71.4 -99.99  5.40
2019/06/24 11:00 EDT  -99.99 -99.99    5  301    7  87.6 -99.9 1018.1 -9.9 -9.999  71.1 -99.99  5.40
2019/06/24 11:06 EDT  -99.99 -99.99    4  235    7  87.6 -99.9 1018.1 -9.9 -9.999  71.0 -99.99  5.40
2019/06/24 11:12 EDT  -99.99 -99.99    6  228    7  87.3 -99.9 1018.1 -9.9 -9.999  73.9 -99.99  5.40
2019/06/24 11:18 EDT  -99.99 -99.99    7  230    8  86.2 -99.9 1018.1 -9.9 -9.999  76.4 -99.99  5.40
2019/06/24 11:24 EDT  -99.99 -99.99    6  226    9  86.2 -99.9 1018.0 -9.9 -9.999  76.2 -99.99  5.40
2019/06/24 11:30 EDT  -99.99 -99.99    5  224    6  86.2 -99.9 1018.0 -9.9 -9.999  76.0 -99.99  5.40
2019/06/24 11:36 EDT  -99.99 -99.99    5  217    7  86.9 -99.9 1018.0 -9.9 -9.999  74.0 -99.99  5.40
2019/06/24 11:42 EDT  -99.99 -99.99    5  258    7  87.1 -99.9 1018.0 -9.9 -9.999  72.0 -99.99  5.40
2019/06/24 11:48 EDT  -99.99 -99.99    6  239    8  88.2 -99.9 1018.0 -9.9 -9.999  70.3 -99.99  5.40
2019/06/24 11:54 EDT  -99.99 -99.99    6  221    9  88.2 -99.9 1018.0 -9.9 -9.999  70.1 -99.99  5.40
2019/06/24 12:00 EDT  -99.99 -99.99    7  237    9  88.2 -99.9 1017.9 -9.9 -9.999  69.6 -99.99  5.40
2019/06/24 12:06 EDT  -99.99 -99.99    4  223    6  88.5 -99.9 1017.9 -9.9 -9.999  68.9 -99.99  5.40
2019/06/24 12:12 EDT  -99.99 -99.99    5  251    7  88.9 -99.9 1017.8 -9.9 -9.999  68.1 -99.99  5.40
2019/06/24 12:18 EDT  -99.99 -99.99    3  237    6  89.8 -99.9 1017.8 -9.9 -9.999  66.0 -99.99  5.40
2019/06/24 12:24 EDT  -99.99 -99.99    4  216    8  90.1 -99.9 1017.7 -9.9 -9.999  65.0 -99.99  5.40
2019/06/24 12:30 EDT  -99.99 -99.99    6  235    7  89.4 -99.9 1017.7 -9.9 -9.999  65.7 -99.99  5.40
2019/06/24 12:36 EDT  -99.99 -99.99    5  252    8  89.8 -99.9 1017.6 -9.9 -9.999  65.8 -99.99  5.40
2019/06/24 12:42 EDT  -99.99 -99.99    6  218    7  90.9 -99.9 1017.6 -9.9 -9.999  62.0 -99.99  5.40
2019/06/24 12:48 EDT  -99.99 -99.99    5  230    7  90.1 -99.9 1017.5 -9.9 -9.999  64.6 -99.99  5.40
2019/06/24 12:54 EDT  -99.99 -99.99    7  267    9  90.5 -99.9 1017.4 -9.9 -9.999  60.9 -99.99  5.40
2019/06/24 13:00 EDT  -99.99 -99.99    4  217    7  91.8 -99.9 1017.4 -9.9 -9.999  59.5 -99.99  5.40
2019/06/24 13:06 EDT  -99.99 -99.99    6  237   11  91.2 -99.9 1017.4 -9.9 -9.999  61.5 -99.99  5.40
2019/06/24 13:12 EDT  -99.99 -99.99    6  224    8  91.0 -99.9 1017.3 -9.9 -9.999  59.7 -99.99  5.40
2019/06/24 13:18 EDT  -99.99 -99.99    6  241    9  90.9 -99.9 1017.2 -9.9 -9.999  58.0 -99.99  5.40
2019/06/24 13:24 EDT  -99.99 -99.99    5  229    7  91.8 -99.9 1017.2 -9.9 -9.999  58.4 -99.99  5.40
2019/06/24 13:30 EDT  -99.99 -99.99    5  213   10  91.2 -99.9 1017.2 -9.9 -9.999  60.0 -99.99  5.40
2019/06/24 13:36 EDT  -99.99 -99.99    4  222    8  91.9 -99.9 1017.2 -9.9 -9.999  59.8 -99.99  5.40
2019/06/24 13:42 EDT  -99.99 -99.99    4  186    6  91.0 -99.9 1017.2 -9.9 -9.999  58.7 -99.99  5.40
2019/06/24 13:48 EDT  -99.99 -99.99    3  257    8  92.5 -99.9 1017.2 -9.9 -9.999  58.1 -99.99  5.40
2019/06/24 13:54 EDT  -99.99 -99.99    3  217    4  93.0 -99.9 1017.0 -9.9 -9.999  56.2 -99.99  5.40
2019/06/24 14:00 EDT  -99.99 -99.99    5  222    6  92.7 -99.9 1017.0 -9.9 -9.999  58.6 -99.99  5.40
2019/06/24 14:06 EDT  -99.99 -99.99    4  202    6  92.5 -99.9 1016.9 -9.9 -9.999  59.0 -99.99  5.40
2019/06/24 14:12 EDT  -99.99 -99.99    6  230    8  93.4 -99.9 1016.9 -9.9 -9.999  58.0 -99.99  5.40
2019/06/24 14:18 EDT  -99.99 -99.99    4  221    5  92.3 -99.9 1016.9 -9.9 -9.999  55.9 -99.99  5.40
2019/06/24 14:24 EDT  -99.99 -99.99    2  341    5  92.5 -99.9 1016.8 -9.9 -9.999  56.7 -99.99  5.40
2019/06/24 14:30 EDT  -99.99 -99.99    5  226    7  94.6 -99.9 1016.8 -9.9 -9.999  53.2 -99.99  5.40
2019/06/24 14:36 EDT  -99.99 -99.99    4  225    6  93.2 -99.9 1016.8 -9.9 -9.999  52.0 -99.99  5.40
2019/06/24 14:42 EDT  -99.99 -99.99    2  193    6  94.3 -99.9 1016.8 -9.9 -9.999  53.0 -99.99  5.40
2019/06/24 14:48 EDT  -99.99 -99.99    2  170    4  94.1 -99.9 1016.7 -9.9 -9.999  53.5 -99.99  5.40
2019/06/24 14:54 EDT  -99.99 -99.99    1  191    7  94.1 -99.9 1016.7 -9.9 -9.999  56.0 -99.99  5.40
2019/06/24 15:00 EDT  -99.99 -99.99    3  279    6  92.1 -99.9 1016.7 -9.9 -9.999  61.9 -99.99  5.40
2019/06/24 15:06 EDT  -99.99 -99.99    8  235   11  94.6 -99.9 1016.6 -9.9 -9.999  49.7 -99.99  5.40
2019/06/24 15:12 EDT  -99.99 -99.99    7  265   11  93.6 -99.9 1016.5 -9.9 -9.999  51.6 -99.99  5.40
2019/06/24 15:18 EDT  -99.99 -99.99    4  246    8  95.5 -99.9 1016.5 -9.9 -9.999  44.2 -99.99  5.40
2019/06/24 15:24 EDT  -99.99 -99.99    6  260    9  95.4 -99.9 1016.4 -9.9 -9.999  47.8 -99.99  5.40
2019/06/24 15:30 EDT  -99.99 -99.99    4  240    8  96.3 -99.9 1016.3 -9.9 -9.999  45.3 -99.99  5.40
2019/06/24 15:36 EDT  -99.99 -99.99    3  248    8  95.2 -99.9 1016.3 -9.9 -9.999  47.1 -99.99  5.40
2019/06/24 15:42 EDT  -99.99 -99.99    5  252   10  95.7 -99.9 1016.2 -9.9 -9.999  46.5 -99.99  5.40
2019/06/24 15:48 EDT  -99.99 -99.99    5  237    9  96.6 -99.9 1016.1 -9.9 -9.999  44.4 -99.99  5.40
2019/06/24 15:54 EDT  -99.99 -99.99    8  249   10  95.4 -99.9 1016.1 -9.9 -9.999  46.4 -99.99  5.40
2019/06/24 16:00 EDT  -99.99 -99.99    4  238   10  95.4 -99.9 1016.1 -9.9 -9.999  48.0 -99.99  5.40
2019/06/24 16:06 EDT  -99.99 -99.99    7  236    9  94.8 -99.9 1016.1 -9.9 -9.999  48.3 -99.99  5.40
2019/06/24 16:12 EDT  -99.99 -99.99    5  251    8  95.7 -99.9 1016.0 -9.9 -9.999  45.1 -99.99  5.40
2019/06/24 16:18 EDT  -99.99 -99.99    8  251   11  96.6 -99.9 1016.0 -9.9 -9.999  44.2 -99.99  5.40
2019/06/24 16:24 EDT  -99.99 -99.99    9  242   11  96.3 -99.9 1016.0 -9.9 -9.999  44.4 -99.99  5.40
2019/06/24 16:30 EDT  -99.99 -99.99    8  238   13  94.6 -99.9 1015.9 -9.9 -9.999  51.3 -99.99  5.40
2019/06/24 16:36 EDT  -99.99 -99.99    8  238   11  94.5 -99.9 1015.9 -9.9 -9.999  50.6 -99.99  5.40
2019/06/24 16:42 EDT  -99.99 -99.99    8  250   12  94.3 -99.9 1015.8 -9.9 -9.999  50.2 -99.99  5.40
2019/06/24 16:48 EDT  -99.99 -99.99    7  241   10  95.9 -99.9 1015.8 -9.9 -9.999  44.1 -99.99  5.40
2019/06/24 16:54 EDT  -99.99 -99.99    8  266   10  95.9 -99.9 1015.6 -9.9 -9.999  45.7 -99.99  5.40
2019/06/24 17:00 EDT  -99.99 -99.99 -999 -999 -999 -99.9 -99.9 -999.9 -9.9 -9.999 -99.9 -99.99 -9.99
2019/06/24 17:06 EDT  -99.99 -99.99    7  234    8  95.4 -99.9 1015.5 -9.9 -9.999 -99.9 -99.99  5.40
2019/06/24 17:12 EDT  -99.99 -99.99    7  235    9 -99.9 -99.9 1015.5 -9.9 -9.999 -99.9 -99.99  5.40
2019/06/24 17:18 EDT  -99.99 -99.99 -999 -999 -999 -99.9 -99.9 -999.9 -9.9 -9.999 -99.9 -99.99 -9.99
2019/06/24 17:24 EDT  -99.99 -99.99   10  261   14  94.1 -99.9 1015.4 -9.9 -9.999  50.6 -99.99  5.40
2019/06/24 17:30 EDT  -99.99 -99.99   11  279   15  96.3 -99.9 1015.3 -9.9 -9.999  44.2 -99.99  5.40
2019/06/24 17:36 EDT  -99.99 -99.99 -999 -999 -999 -99.9 -99.9 -999.9 -9.9 -9.999 -99.9 -99.99 -9.99
2019/06/24 17:42 EDT  -99.99 -99.99   10  253   16  96.1 -99.9 1015.3 -9.9 -9.999  48.4 -99.99  5.40
2019/06/24 17:48 EDT  -99.99 -99.99   10  246   13 -99.9 -99.9 1015.2 -9.9 -9.999 -99.9 -99.99  5.40
2019/06/24 17:54 EDT  -99.99 -99.99 -999 -999 -999 -99.9 -99.9 -999.9 -9.9 -9.999 -99.9 -99.99 -9.99
2019/06/24 18:00 EDT  -99.99 -99.99 -999 -999 -999 -99.9 -99.9 -999.9 -9.9 -9.999 -99.9 -99.99 -9.99
2019/06/24 18:06 EDT  -99.99 -99.99 -999 -999 -999 -99.9 -99.9 -999.9 -9.9 -9.999 -99.9 -99.99 -9.99
2019/06/24 18:12 EDT  -99.99 -99.99    8  271   11 -99.9 -99.9 -999.9 -9.9 -9.999 -99.9 -99.99 -9.99
2019/06/24 18:18 EDT  -99.99 -99.99    5  337   13  95.9 -99.9 1015.3 -9.9 -9.999  46.1 -99.99  5.40
2019/06/24 18:24 EDT  -99.99 -99.99    6  224   11  94.3 -99.9 1015.4 -9.9 -9.999  51.4 -99.99  5.40
2019/06/24 18:30 EDT  -99.99 -99.99    6  272   10  94.3 -99.9 1015.3 -9.9 -9.999  50.5 -99.99  5.40
2019/06/24 18:36 EDT  -99.99 -99.99    9   90   11  94.6 -99.9 1015.2 -9.9 -9.999  55.5 -99.99  5.40
2019/06/24 18:42 EDT  -99.99 -99.99    4  113   10  90.9 -99.9 1015.2 -9.9 -9.999  68.7 -99.99  5.40
2019/06/24 18:48 EDT  -99.99 -99.99    4  201    6  90.1 -99.9 1015.3 -9.9 -9.999  69.4 -99.99  5.40
2019/06/24 18:54 EDT  -99.99 -99.99    3  330    6  90.9 -99.9 1015.2 -9.9 -9.999  64.6 -99.99  5.40
2019/06/24 19:00 EDT  -99.99 -99.99    5  245    9  92.1 -99.9 1015.3 -9.9 -9.999  60.1 -99.99  5.40
2019/06/24 19:06 EDT  -99.99 -99.99    5  283    9  95.4 -99.9 1015.2 -9.9 -9.999  47.5 -99.99  5.40
2019/06/24 19:12 EDT  -99.99 -99.99    4  256    6  94.6 -99.9 1015.1 -9.9 -9.999  56.2 -99.99  5.40
2019/06/24 19:18 EDT  -99.99 -99.99    5  353    7  94.1 -99.9 1015.1 -9.9 -9.999  55.9 -99.99  5.40
2019/06/24 19:24 EDT  -99.99 -99.99    4   85    7  92.3 -99.9 1015.1 -9.9 -9.999  63.7 -99.99  5.40
2019/06/24 19:30 EDT  -99.99 -99.99    1  200    6  90.7 -99.9 1015.1 -9.9 -9.999  70.6 -99.99  5.40
2019/06/24 19:36 EDT  -99.99 -99.99    5  270    8  90.0 -99.9 1015.2 -9.9 -9.999  69.2 -99.99  5.40
2019/06/24 19:42 EDT  -99.99 -99.99    5  246    8  93.4 -99.9 1015.2 -9.9 -9.999  52.6 -99.99  5.40
2019/06/24 19:48 EDT  -99.99 -99.99    6  233    9  93.4 -99.9 1015.1 -9.9 -9.999  54.0 -99.99  5.40
2019/06/24 19:54 EDT  -99.99 -99.99    5  249    8  92.3 -99.9 1015.2 -9.9 -9.999  57.9 -99.99  5.40
2019/06/24 20:00 EDT  -99.99 -99.99    6  254   10  92.8 -99.9 1015.2 -9.9 -9.999  56.0 -99.99  5.40
2019/06/24 20:06 EDT  -99.99 -99.99    5  250    9  92.8 -99.9 1015.3 -9.9 -9.999  54.0 -99.99  5.40
2019/06/24 20:12 EDT  -99.99 -99.99    6  249    9  92.1 -99.9 1015.2 -9.9 -9.999  57.3 -99.99  5.40
2019/06/24 20:18 EDT  -99.99 -99.99    8  232   12  91.4 -99.9 1015.2 -9.9 -9.999  59.9 -99.99  5.40
2019/06/24 20:24 EDT  -99.99 -99.99    9  231   11  91.4 -99.9 1015.2 -9.9 -9.999  59.5 -99.99  5.40
2019/06/24 20:30 EDT  -99.99 -99.99    9  227   12  91.2 -99.9 1015.3 -9.9 -9.999  58.5 -99.99  5.40
2019/06/24 20:36 EDT  -99.99 -99.99   11  228   14  91.2 -99.9 1015.5 -9.9 -9.999  58.2 -99.99  5.40
2019/06/24 20:42 EDT  -99.99 -99.99   11  229   12  91.4 -99.9 1015.6 -9.9 -9.999  56.2 -99.99  5.40
2019/06/24 20:48 EDT  -99.99 -99.99   11  224   13  91.0 -99.9 1015.6 -9.9 -9.999  57.1 -99.99  5.40
2019/06/24 20:54 EDT  -99.99 -99.99   11  230   13  91.0 -99.9 1015.7 -9.9 -9.999  56.4 -99.99  5.40
2019/06/24 21:00 EDT  -99.99 -99.99   10  232   13  90.7 -99.9 1015.8 -9.9 -9.999  58.3 -99.99  5.40
2019/06/24 21:06 EDT  -99.99 -99.99    9  245   11  90.1 -99.9 1015.9 -9.9 -9.999  60.2 -99.99  5.40
2019/06/24 21:12 EDT  -99.99 -99.99    8  247   11  90.1 -99.9 1015.9 -9.9 -9.999  59.0 -99.99  5.40
2019/06/24 21:18 EDT  -99.99 -99.99   10  247   13  90.3 -99.9 1016.0 -9.9 -9.999  56.7 -99.99  5.40
2019/06/24 21:24 EDT  -99.99 -99.99   10  246   13  90.3 -99.9 1016.0 -9.9 -9.999  56.6 -99.99  5.40
2019/06/24 21:30 EDT  -99.99 -99.99   10  253   13  90.1 -99.9 1016.2 -9.9 -9.999  56.3 -99.99  5.40
2019/06/24 21:36 EDT  -99.99 -99.99   10  248   13  90.3 -99.9 1016.4 -9.9 -9.999  55.0 -99.99  5.40
2019/06/24 21:42 EDT  -99.99 -99.99   10  245   14  90.0 -99.9 1016.5 -9.9 -9.999  57.5 -99.99  5.40
2019/06/24 21:48 EDT  -99.99 -99.99   10  250   13  89.6 -99.9 1016.5 -9.9 -9.999  57.7 -99.99  5.40
2019/06/24 21:54 EDT  -99.99 -99.99    9  249   15  89.6 -99.9 1016.6 -9.9 -9.999  56.9 -99.99  5.40
2019/06/24 22:00 EDT  -99.99 -99.99   10  254   13  89.2 -99.9 1016.7 -9.9 -9.999  58.3 -99.99  5.40
2019/06/24 22:06 EDT  -99.99 -99.99   10  266   14  89.2 -99.9 1016.9 -9.9 -9.999  58.3 -99.99  5.40
2019/06/24 22:12 EDT  -99.99 -99.99   13  262   16  89.2 -99.9 1017.1 -9.9 -9.999  56.8 -99.99  5.40
2019/06/24 22:18 EDT  -99.99 -99.99   16  262   20  89.1 -99.9 1017.3 -9.9 -9.999  56.7 -99.99  5.40
2019/06/24 22:24 EDT  -99.99 -99.99   11  258   17  88.7 -99.9 1017.3 -9.9 -9.999  57.8 -99.99  5.40
2019/06/24 22:30 EDT  -99.99 -99.99   12  261   22  88.3 -99.9 1017.3 -9.9 -9.999  59.6 -99.99  5.40
2019/06/24 22:36 EDT  -99.99 -99.99   12  255   17  88.0 -99.9 1017.2 -9.9 -9.999  60.6 -99.99  5.40
2019/06/24 22:42 EDT  -99.99 -99.99   10  255   16  87.6 -99.9 1017.1 -9.9 -9.999  61.2 -99.99  5.40
2019/06/24 22:48 EDT  -99.99 -99.99    9  255   11  87.4 -99.9 1017.1 -9.9 -9.999  63.3 -99.99  5.40
2019/06/24 22:54 EDT  -99.99 -99.99   10  235   12  87.1 -99.9 1017.0 -9.9 -9.999  65.3 -99.99  5.40
2019/06/24 23:00 EDT  -99.99 -99.99    9  236   12  86.9 -99.9 1016.9 -9.9 -9.999  66.8 -99.99  5.40
2019/06/24 23:06 EDT  -99.99 -99.99    6  213   10  86.7 -99.9 1016.9 -9.9 -9.999  67.2 -99.99  5.40
2019/06/24 23:12 EDT  -99.99 -99.99    7  224    9  86.4 -99.9 1016.8 -9.9 -9.999  65.9 -99.99  5.40
2019/06/24 23:18 EDT  -99.99 -99.99    6  234    8  86.4 -99.9 1016.8 -9.9 -9.999  65.2 -99.99  5.40
2019/06/24 23:24 EDT  -99.99 -99.99    6  251    9  86.2 -99.9 1017.1 -9.9 -9.999  65.9 -99.99  5.40
2019/06/24 23:30 EDT  -99.99 -99.99    7  248   11  86.2 -99.9 1017.2 -9.9 -9.999  64.7 -99.99  5.40
2019/06/24 23:36 EDT  -99.99 -99.99    6  250    9  86.4 -99.9 1017.0 -9.9 -9.999  60.5 -99.99  5.40
2019/06/24 23:42 EDT  -99.99 -99.99    6  261    9  86.0 -99.9 1017.0 -9.9 -9.999  62.6 -99.99  5.40
2019/06/24 23:48 EDT  -99.99 -99.99    5  259    8  85.8 -99.9 1017.1 -9.9 -9.999  62.0 -99.99  5.40
2019/06/24 23:54 EDT  -99.99 -99.99    6  264    7  85.8 -99.9 1017.2 -9.9 -9.999  61.0 -99.99  5.40
2019/06/25 00:00 EDT  -99.99 -99.99    7  259    8  85.8 -99.9 1017.2 -9.9 -9.999  58.4 -99.99  5.40
2019/06/25 00:06 EDT  -99.99 -99.99    6  261    9  85.6 -99.9 1017.2 -9.9 -9.999  58.0 -99.99  5.40
2019/06/25 00:12 EDT  -99.99 -99.99    7  248   10  85.5 -99.9 1017.1 -9.9 -9.999  58.8 -99.99  5.40
2019/06/25 00:18 EDT  -99.99 -99.99    7  244   11  84.9 -99.9 1017.0 -9.9 -9.999  59.3 -99.99  5.40
2019/06/25 00:24 EDT  -99.99 -99.99    8  240   10  84.4 -99.9 1016.9 -9.9 -9.999  62.7 -99.99  5.40
2019/06/25 00:30 EDT  -99.99 -99.99    9  239   10  84.2 -99.9 1016.8 -9.9 -9.999  61.7 -99.99  5.40
2019/06/25 00:36 EDT  -99.99 -99.99    6  253   10  84.0 -99.9 1016.8 -9.9 -9.999  59.9 -99.99  5.40
2019/06/25 00:42 EDT  -99.99 -99.99    6  248    9  83.8 -99.9 1016.8 -9.9 -9.999  59.0 -99.99  5.40
2019/06/25 00:48 EDT  -99.99 -99.99    5  243    8  83.8 -99.9 1016.8 -9.9 -9.999  60.2 -99.99  5.40
2019/06/25 00:54 EDT  -99.99 -99.99    4  217    7  83.7 -99.9 1016.8 -9.9 -9.999  61.7 -99.99  5.40
2019/06/25 01:00 EDT  -99.99 -99.99    6  217    8  82.9 -99.9 1016.8 -9.9 -9.999  64.5 -99.99  5.40
2019/06/25 01:06 EDT  -99.99 -99.99    7  227    8  82.8 -99.9 1016.8 -9.9 -9.999  65.6 -99.99  5.40
2019/06/25 01:12 EDT  -99.99 -99.99    8  230    9  82.6 -99.9 1016.8 -9.9 -9.999  66.6 -99.99  5.40
2019/06/25 01:18 EDT  -99.99 -99.99    8  227    9  82.8 -99.9 1016.8 -9.9 -9.999  67.9 -99.99  5.40
2019/06/25 01:24 EDT  -99.99 -99.99    8  230   10  82.0 -99.9 1016.8 -9.9 -9.999  67.8 -99.99  5.40
2019/06/25 01:30 EDT  -99.99 -99.99   10  236   11  82.2 -99.9 1016.9 -9.9 -9.999  69.4 -99.99  5.40
2019/06/25 01:36 EDT  -99.99 -99.99    8  242   10  82.2 -99.9 1016.9 -9.9 -9.999  69.8 -99.99  5.40
2019/06/25 01:42 EDT  -99.99 -99.99   10  237   11  81.9 -99.9 1016.8 -9.9 -9.999  69.4 -99.99  5.40
2019/06/25 01:48 EDT  -99.99 -99.99    8  242   11  82.0 -99.9 1016.8 -9.9 -9.999  70.0 -99.99  5.40
2019/06/25 01:54 EDT  -99.99 -99.99    9  236   12  81.7 -99.9 1016.9 -9.9 -9.999  69.4 -99.99  5.40
2019/06/25 02:00 EDT  -99.99 -99.99    7  248   10  82.2 -99.9 1016.8 -9.9 -9.999  70.1 -99.99  5.40
2019/06/25 02:06 EDT  -99.99 -99.99    7  250   10  81.5 -99.9 1016.7 -9.9 -9.999  67.9 -99.99  5.40
2019/06/25 02:12 EDT  -99.99 -99.99    8  242   10  81.5 -99.9 1016.6 -9.9 -9.999  65.0 -99.99  5.40
2019/06/25 02:18 EDT  -99.99 -99.99    8  242   11  81.9 -99.9 1016.5 -9.9 -9.999  66.8 -99.99  5.40
2019/06/25 02:24 EDT  -99.99 -99.99    7  258   10  81.7 -99.9 1016.5 -9.9 -9.999  65.9 -99.99  5.40
2019/06/25 02:30 EDT  -99.99 -99.99    8  254   11  81.7 -99.9 1016.4 -9.9 -9.999  66.2 -99.99  5.40
2019/06/25 02:36 EDT  -99.99 -99.99    8  255   12  81.5 -99.9 1016.4 -9.9 -9.999  66.2 -99.99  5.40
2019/06/25 02:42 EDT  -99.99 -99.99    8  253   13  81.3 -99.9 1016.4 -9.9 -9.999  66.4 -99.99  5.40
2019/06/25 02:48 EDT  -99.99 -99.99    8  251   11  81.1 -99.9 1016.4 -9.9 -9.999  67.9 -99.99  5.40
2019/06/25 02:54 EDT  -99.99 -99.99    8  253   10  81.0 -99.9 1016.3 -9.9 -9.999  69.7 -99.99  5.40
2019/06/25 03:00 EDT  -99.99 -99.99    9  237   11  81.1 -99.9 1016.3 -9.9 -9.999  72.0 -99.99  5.40
2019/06/25 03:06 EDT  -99.99 -99.99    9  240   12  81.3 -99.9 1016.3 -9.9 -9.999  73.9 -99.99  5.40
2019/06/25 03:12 EDT  -99.99 -99.99    9  234   11  81.1 -99.9 1016.3 -9.9 -9.999  74.4 -99.99  5.40
2019/06/25 03:18 EDT  -99.99 -99.99   10  240   12  81.7 -99.9 1016.3 -9.9 -9.999  76.1 -99.99  5.40
2019/06/25 03:24 EDT  -99.99 -99.99   10  243   12  81.3 -99.9 1016.3 -9.9 -9.999  77.0 -99.99  5.40
2019/06/25 03:30 EDT  -99.99 -99.99    9  236   11  81.0 -99.9 1016.3 -9.9 -9.999  77.2 -99.99  5.40
2019/06/25 03:36 EDT  -99.99 -99.99    8  241   11  81.0 -99.9 1016.2 -9.9 -9.999  79.0 -99.99  5.40
2019/06/25 03:42 EDT  -99.99 -99.99    8  238   10  81.0 -99.9 1016.2 -9.9 -9.999  80.7 -99.99  5.40
2019/06/25 03:48 EDT  -99.99 -99.99    9  233   11  81.0 -99.9 1016.2 -9.9 -9.999  82.9 -99.99  5.40
2019/06/25 03:54 EDT  -99.99 -99.99    9  237   11  81.5 -99.9 1016.2 -9.9 -9.999  85.4 -99.99  5.40
2019/06/25 04:00 EDT  -99.99 -99.99   10  235   11  81.1 -99.9 1016.2 -9.9 -9.999  87.0 -99.99  5.40
2019/06/25 04:06 EDT  -99.99 -99.99   10  234   12  81.1 -99.9 1016.1 -9.9 -9.999  88.4 -99.99  5.40
2019/06/25 04:12 EDT  -99.99 -99.99   10  235   11  81.1 -99.9 1016.2 -9.9 -9.999  89.3 -99.99  5.40
2019/06/25 04:18 EDT  -99.99 -99.99    9  237   13  81.3 -99.9 1016.1 -9.9 -9.999  90.5 -99.99  5.40
2019/06/25 04:24 EDT  -99.99 -99.99    9  246   12  81.5 -99.9 1016.2 -9.9 -9.999  91.6 -99.99  5.40
2019/06/25 04:30 EDT  -99.99 -99.99    7  252   11  81.1 -99.9 1016.2 -9.9 -9.999  92.3 -99.99  5.40
2019/06/25 04:36 EDT  -99.99 -99.99    8  249   11  81.1 -99.9 1016.3 -9.9 -9.999  92.9 -99.99  5.40
2019/06/25 04:42 EDT  -99.99 -99.99    7  251   12  81.1 -99.9 1016.3 -9.9 -9.999  93.6 -99.99  5.40
2019/06/25 04:48 EDT  -99.99 -99.99    8  251   11  81.3 -99.9 1016.3 -9.9 -9.999  94.6 -99.99  5.40
2019/06/25 04:54 EDT  -99.99 -99.99    7  253    9  81.1 -99.9 1016.4 -9.9 -9.999  95.5 -99.99  5.40
2019/06/25 05:00 EDT  -99.99 -99.99    7  254   11  81.1 -99.9 1016.4 -9.9 -9.999  96.7 -99.99  5.40
2019/06/25 05:06 EDT  -99.99 -99.99    7  247   11  81.0 -99.9 1016.4 -9.9 -9.999  97.5 -99.99  5.40
2019/06/25 05:12 EDT  -99.99 -99.99    8  252   11  81.0 -99.9 1016.4 -9.9 -9.999  98.5 -99.99  5.40
2019/06/25 05:18 EDT  -99.99 -99.99    6  259   10  80.8 -99.9 1016.4 -9.9 -9.999  99.3 -99.99  5.40
2019/06/25 05:24 EDT  -99.99 -99.99    9  262   11  80.6 -99.9 1016.5 -9.9 -9.999  99.8 -99.99  5.40
2019/06/25 05:30 EDT  -99.99 -99.99    7  254   10  80.6 -99.9 1016.6 -9.9 -9.999 100.0 -99.99  5.40
2019/06/25 05:36 EDT  -99.99 -99.99    6  253   10  80.6 -99.9 1016.7 -9.9 -9.999 100.0 -99.99  5.40
2019/06/25 05:42 EDT  -99.99 -99.99    7  258   10  80.6 -99.9 1016.7 -9.9 -9.999 100.0 -99.99  5.40
2019/06/25 05:48 EDT  -99.99 -99.99    8  261   11  80.4 -99.9 1016.8 -9.9 -9.999 100.0 -99.99  5.40
2019/06/25 05:54 EDT  -99.99 -99.99    7  261   13  80.4 -99.9 1016.9 -9.9 -9.999 100.0 -99.99  5.40
2019/06/25 06:00 EDT  -99.99 -99.99    6  262   10  80.2 -99.9 1017.0 -9.9 -9.999 100.0 -99.99  5.40
2019/06/25 06:06 EDT  -99.99 -99.99    7  262   11  80.1 -99.9 1017.1 -9.9 -9.999 100.0 -99.99  5.40
2019/06/25 06:12 EDT  -99.99 -99.99    8  260   11  80.1 -99.9 1017.3 -9.9 -9.999 100.0 -99.99  5.40
2019/06/25 06:18 EDT  -99.99 -99.99    6  264   11  79.9 -99.9 1017.4 -9.9 -9.999 100.0 -99.99  5.40
2019/06/25 06:24 EDT  -99.99 -99.99    6  269   10  79.9 -99.9 1017.5 -9.9 -9.999 100.0 -99.99  5.40
2019/06/25 06:30 EDT  -99.99 -99.99    6  263    9  79.9 -99.9 1017.6 -9.9 -9.999 100.0 -99.99  5.40
2019/06/25 06:36 EDT  -99.99 -99.99    7  278   10  80.1 -99.9 1017.7 -9.9 -9.999 100.0 -99.99  5.40
2019/06/25 06:42 EDT  -99.99 -99.99    6  276   10  80.1 -99.9 1017.8 -9.9 -9.999 100.0 -99.99  5.40
2019/06/25 06:48 EDT  -99.99 -99.99    6  282    9  80.1 -99.9 1017.8 -9.9 -9.999 100.0 -99.99  5.40
2019/06/25 06:54 EDT  -99.99 -99.99    6  274    9  80.1 -99.9 1017.9 -9.9 -9.999 100.0 -99.99  5.40
2019/06/25 07:00 EDT  -99.99 -99.99    7  268   10  80.1 -99.9 1018.0 -9.9 -9.999 100.0 -99.99  5.40
2019/06/25 07:06 EDT  -99.99 -99.99    7  272   11  80.1 -99.9 1018.1 -9.9 -9.999 100.0 -99.99  5.40
2019/06/25 07:12 EDT  -99.99 -99.99    5  266    9  80.1 -99.9 1018.1 -9.9 -9.999 100.0 -99.99  5.40
2019/06/25 07:18 EDT  -99.99 -99.99    7  283   13  80.1 -99.9 1018.2 -9.9 -9.999 100.0 -99.99  5.40
2019/06/25 07:24 EDT  -99.99 -99.99    8  269   11  80.2 -99.9 1018.2 -9.9 -9.999 100.0 -99.99  5.40
2019/06/25 07:30 EDT  -99.99 -99.99    6  274   10  80.2 -99.9 1018.3 -9.9 -9.999 100.0 -99.99  5.40
2019/06/25 07:36 EDT  -99.99 -99.99    8  272   11  80.6 -99.9 1018.4 -9.9 -9.999 100.0 -99.99  5.40
2019/06/25 07:42 EDT  -99.99 -99.99    7  273   11  80.4 -99.9 1018.4 -9.9 -9.999 100.0 -99.99  5.40
2019/06/25 07:48 EDT  -99.99 -99.99    8  278   14  80.4 -99.9 1018.5 -9.9 -9.999 100.0 -99.99  5.40
2019/06/25 07:54 EDT  -99.99 -99.99    8  276   12  80.4 -99.9 1018.5 -9.9 -9.999 100.0 -99.99  5.40
2019/06/25 08:00 EDT  -99.99 -99.99   11  273   16  80.8 -99.9 1018.6 -9.9 -9.999 100.0 -99.99  5.40
2019/06/25 08:06 EDT  -99.99 -99.99   10  280   14  80.8 -99.9 1018.7 -9.9 -9.999 100.0 -99.99  5.40
2019/06/25 08:12 EDT  -99.99 -99.99   12  289   14  81.0 -99.9 1018.7 -9.9 -9.999 100.0 -99.99  5.40
2019/06/25 08:18 EDT  -99.99 -99.99   10  282   15  81.1 -99.9 1018.8 -9.9 -9.999 100.0 -99.99  5.40
2019/06/25 08:24 EDT  -99.99 -99.99    9  285   14  81.5 -99.9 1018.8 -9.9 -9.999 100.0 -99.99  5.40
2019/06/25 08:30 EDT  -99.99 -99.99   11  285   17  81.7 -99.9 1018.9 -9.9 -9.999 100.0 -99.99  5.40
2019/06/25 08:36 EDT  -99.99 -99.99   11  283   16  81.5 -99.9 1018.9 -9.9 -9.999 100.0 -99.99  5.40
2019/06/25 08:42 EDT  -99.99 -99.99   12  288   17  81.5 -99.9 1018.9 -9.9 -9.999 100.0 -99.99  5.40
2019/06/25 08:48 EDT  -99.99 -99.99    7  283   13  81.3 -99.9 1019.0 -9.9 -9.999 100.0 -99.99  5.40
2019/06/25 08:54 EDT  -99.99 -99.99    8  282   13  82.2 -99.9 1019.0 -9.9 -9.999  98.7 -99.99  5.40
2019/06/25 09:00 EDT  -99.99 -99.99   11  281   14  82.0 -99.9 1019.1 -9.9 -9.999  97.0 -99.99  5.40
2019/06/25 09:06 EDT  -99.99 -99.99    9  292   16  81.9 -99.9 1019.1 -9.9 -9.999  94.5 -99.99  5.40
2019/06/25 09:12 EDT  -99.99 -99.99    9  283   13  82.0 -99.9 1019.1 -9.9 -9.999  93.5 -99.99  5.40
2019/06/25 09:18 EDT  -99.99 -99.99    9  295   13  82.4 -99.9 1019.0 -9.9 -9.999  91.7 -99.99  5.40
2019/06/25 09:24 EDT  -99.99 -99.99    9  301   15  82.9 -99.9 1019.0 -9.9 -9.999  89.3 -99.99  5.40
2019/06/25 09:30 EDT  -99.99 -99.99    9  297   14  83.1 -99.9 1019.0 -9.9 -9.999  86.6 -99.99  5.40
2019/06/25 09:36 EDT  -99.99 -99.99    7  279   11  83.3 -99.9 1019.0 -9.9 -9.999  84.5 -99.99  5.40
2019/06/25 09:42 EDT  -99.99 -99.99    9  299   12  83.8 -99.9 1019.0 -9.9 -9.999  83.0 -99.99  5.40
2019/06/25 09:48 EDT  -99.99 -99.99   10  299   13  84.4 -99.9 1019.0 -9.9 -9.999  80.9 -99.99  5.40
2019/06/25 09:54 EDT  -99.99 -99.99    9  298   12  84.4 -99.9 1019.0 -9.9 -9.999  79.4 -99.99  5.40
2019/06/25 10:00 EDT  -99.99 -99.99    8  291   11  84.7 -99.9 1019.0 -9.9 -9.999  77.4 -99.99  5.40
2019/06/25 10:06 EDT  -99.99 -99.99    7  293   11  85.3 -99.9 1019.0 -9.9 -9.999  76.8 -99.99  5.40
2019/06/25 10:12 EDT  -99.99 -99.99   10  310   13  85.8 -99.9 1018.9 -9.9 -9.999  75.6 -99.99  5.40
2019/06/25 10:18 EDT  -99.99 -99.99    9  280   12  85.5 -99.9 1018.9 -9.9 -9.999  74.5 -99.99  5.40
2019/06/25 10:24 EDT  -99.99 -99.99    8  296   12  85.6 -99.9 1018.9 -9.9 -9.999  74.2 -99.99  5.40
2019/06/25 10:30 EDT  -99.99 -99.99    9  300   12  86.2 -99.9 1018.9 -9.9 -9.999  73.1 -99.99  5.40
2019/06/25 10:36 EDT  -99.99 -99.99    8  284   13  86.2 -99.9 1018.9 -9.9 -9.999  73.9 -99.99  5.40
2019/06/25 10:42 EDT  -99.99 -99.99   10  281   14  86.5 -99.9 1018.9 -9.9 -9.999  73.1 -99.99  5.40
2019/06/25 10:48 EDT  -99.99 -99.99   10  302   13  86.7 -99.9 1018.9 -9.9 -9.999  71.6 -99.99  5.40
2019/06/25 10:54 EDT  -99.99 -99.99    8  305   13  87.1 -99.9 1018.9 -9.9 -9.999  69.9 -99.99  5.40
2019/06/25 11:00 EDT  -99.99 -99.99    4  285   12  87.4 -99.9 1018.9 -9.9 -9.999  68.3 -99.99  5.40
2019/06/25 11:06 EDT  -99.99 -99.99    9  284   11  88.3 -99.9 1019.0 -9.9 -9.999  67.4 -99.99  5.40
2019/06/25 11:12 EDT  -99.99 -99.99    8  314   15  87.3 -99.9 1019.0 -9.9 -9.999  67.2 -99.99  5.40
2019/06/25 11:18 EDT  -99.99 -99.99    7  314   11  88.7 -99.9 1019.0 -9.9 -9.999  64.1 -99.99  5.40
2019/06/25 11:24 EDT  -99.99 -99.99    8  284   12  88.0 -99.9 1019.1 -9.9 -9.999  66.4 -99.99  5.40
2019/06/25 11:30 EDT  -99.99 -99.99    9  277   13  88.0 -99.9 1019.0 -9.9 -9.999  66.2 -99.99  5.40
2019/06/25 11:36 EDT  -99.99 -99.99    9  283   13  88.9 -99.9 1019.0 -9.9 -9.999  63.8 -99.99  5.40
2019/06/25 11:42 EDT  -99.99 -99.99    9  322   11  89.1 -99.9 1019.0 -9.9 -9.999  62.8 -99.99  5.40
2019/06/25 11:48 EDT  -99.99 -99.99    7  283   11  88.9 -99.9 1018.9 -9.9 -9.999  63.3 -99.99  5.40
2019/06/25 11:54 EDT  -99.99 -99.99    8  273   11  89.1 -99.9 1018.8 -9.9 -9.999  62.7 -99.99  5.40
2019/06/25 12:00 EDT  -99.99 -99.99    9  280   11  89.6 -99.9 1018.8 -9.9 -9.999  62.4 -99.99  5.40
2019/06/25 12:06 EDT  -99.99 -99.99    7  277   11  89.6 -99.9 1018.8 -9.9 -9.999  61.3 -99.99  5.40
2019/06/25 12:12 EDT  -99.99 -99.99    7  274   11  90.0 -99.9 1018.7 -9.9 -9.999  61.2 -99.99  5.40
2019/06/25 12:18 EDT  -99.99 -99.99    7  278   10  89.8 -99.9 1018.7 -9.9 -9.999  61.5 -99.99  5.40
2019/06/25 12:24 EDT  -99.99 -99.99    7  290   10  90.5 -99.9 1018.7 -9.9 -9.999  61.0 -99.99  5.40
2019/06/25 12:30 EDT  -99.99 -99.99    8  283   13  91.0 -99.9 1018.7 -9.9 -9.999  59.5 -99.99  5.40
2019/06/25 12:36 EDT  -99.99 -99.99    4  241   10  91.2 -99.9 1018.6 -9.9 -9.999  59.4 -99.99  5.40
2019/06/25 12:42 EDT  -99.99 -99.99    7  292   11  91.0 -99.9 1018.6 -9.9 -9.999  62.4 -99.99  5.40
2019/06/25 12:48 EDT  -99.99 -99.99    5  266   11  92.3 -99.9 1018.6 -9.9 -9.999  55.8 -99.99  5.40
2019/06/25 12:54 EDT  -99.99 -99.99    4  273    9  92.3 -99.9 1018.5 -9.9 -9.999  57.1 -99.99  5.40
2019/06/25 13:00 EDT  -99.99 -99.99    8  306   12  92.1 -99.9 1018.5 -9.9 -9.999  56.6 -99.99  5.40
2019/06/25 13:06 EDT  -99.99 -99.99    3  256    9  92.5 -99.9 1018.5 -9.9 -9.999  53.5 -99.99  5.40
2019/06/25 13:12 EDT  -99.99 -99.99    6  284   12  93.4 -99.9 1018.5 -9.9 -9.999  56.0 -99.99  5.40
2019/06/25 13:18 EDT  -99.99 -99.99    6  254    9  93.7 -99.9 1018.5 -9.9 -9.999  54.4 -99.99  5.40
2019/06/25 13:24 EDT  -99.99 -99.99    7  289   13  93.0 -99.9 1018.4 -9.9 -9.999  56.3 -99.99  5.40
2019/06/25 13:30 EDT  -99.99 -99.99    9  233   13  93.0 -99.9 1018.3 -9.9 -9.999  53.1 -99.99  5.40
2019/06/25 13:36 EDT  -99.99 -99.99    8  257   13  91.0 -99.9 1018.3 -9.9 -9.999  59.3 -99.99  5.40
2019/06/25 13:42 EDT  -99.99 -99.99    7  270   11  92.8 -99.9 1018.2 -9.9 -9.999  55.3 -99.99  5.40
2019/06/25 13:48 EDT  -99.99 -99.99    9  282   13  94.5 -99.9 1018.3 -9.9 -9.999  51.1 -99.99  5.40
2019/06/25 13:54 EDT  -99.99 -99.99    5  256   11  94.3 -99.9 1018.3 -9.9 -9.999  51.6 -99.99  5.40
2019/06/25 14:00 EDT  -99.99 -99.99   10  311   12  94.8 -99.9 1018.2 -9.9 -9.999  52.6 -99.99  5.40
2019/06/25 14:06 EDT  -99.99 -99.99    8  272   12  94.8 -99.9 1018.3 -9.9 -9.999  48.5 -99.99  5.40
2019/06/25 14:12 EDT  -99.99 -99.99   11  319   16  95.4 -99.9 1018.3 -9.9 -9.999  50.6 -99.99  5.40
2019/06/25 14:18 EDT  -99.99 -99.99   10  306   15  95.4 -99.9 1018.1 -9.9 -9.999  49.4 -99.99  5.40
2019/06/25 14:24 EDT  -99.99 -99.99    8  291   11  95.7 -99.9 1018.2 -9.9 -9.999  48.7 -99.99  5.40
2019/06/25 14:30 EDT  -99.99 -99.99    7  323   14  94.6 -99.9 1018.0 -9.9 -9.999  50.4 -99.99  5.40
2019/06/25 14:36 EDT  -99.99 -99.99    7  292   18  94.8 -99.9 1017.8 -9.9 -9.999  50.1 -99.99  5.40
2019/06/25 14:42 EDT  -99.99 -99.99    7  282   13  94.8 -99.9 1017.8 -9.9 -9.999  49.6 -99.99  5.40
2019/06/25 14:48 EDT  -99.99 -99.99    9  287   12  95.5 -99.9 1017.7 -9.9 -9.999  50.1 -99.99  5.40
2019/06/25 14:54 EDT  -99.99 -99.99    9  276   13  95.5 -99.9 1017.6 -9.9 -9.999  49.1 -99.99  5.40
2019/06/25 15:00 EDT  -99.99 -99.99    7  257   11  95.4 -99.9 1017.6 -9.9 -9.999  49.2 -99.99  5.40
2019/06/25 15:06 EDT  -99.99 -99.99    7  274   11  95.0 -99.9 1017.6 -9.9 -9.999  49.4 -99.99  5.40
2019/06/25 15:12 EDT  -99.99 -99.99    7  325   10  95.0 -99.9 1017.6 -9.9 -9.999  48.8 -99.99  5.40
2019/06/25 15:18 EDT  -99.99 -99.99    6  278   12  96.1 -99.9 1017.5 -9.9 -9.999  49.1 -99.99  5.40
2019/06/25 15:24 EDT  -99.99 -99.99    6  288    9  94.8 -99.9 1017.5 -9.9 -9.999  49.2 -99.99  5.40
2019/06/25 15:30 EDT  -99.99 -99.99    9  304   15  95.9 -99.9 1017.5 -9.9 -9.999  49.2 -99.99  5.40
2019/06/25 15:36 EDT  -99.99 -99.99    5  262   12  95.5 -99.9 1017.6 -9.9 -9.999  48.3 -99.99  5.40
2019/06/25 15:42 EDT  -99.99 -99.99    6  281   10  94.6 -99.9 1017.5 -9.9 -9.999  49.5 -99.99  5.40
2019/06/25 15:48 EDT  -99.99 -99.99    7  277   11  96.1 -99.9 1017.5 -9.9 -9.999  47.4 -99.99  5.40
2019/06/25 15:54 EDT  -99.99 -99.99    9  267   16  96.3 -99.9 1017.5 -9.9 -9.999  47.5 -99.99  5.40
2019/06/25 16:00 EDT  -99.99 -99.99   10  291   17  95.9 -99.9 1017.4 -9.9 -9.999  47.6 -99.99  5.40
2019/06/25 16:06 EDT  -99.99 -99.99    8  335   12  96.8 -99.9 1017.4 -9.9 -9.999  45.7 -99.99  5.40
2019/06/25 16:12 EDT  -99.99 -99.99   10  270   15  96.1 -99.9 1017.3 -9.9 -9.999  47.2 -99.99  5.40
2019/06/25 16:18 EDT  -99.99 -99.99    8  265   14  96.3 -99.9 1017.2 -9.9 -9.999  47.4 -99.99  5.40
2019/06/25 16:24 EDT  -99.99 -99.99    8  314   10  96.1 -99.9 1017.2 -9.9 -9.999  47.6 -99.99  5.40
2019/06/25 16:30 EDT  -99.99 -99.99   11  307   14  97.3 -99.9 1017.1 -9.9 -9.999  46.0 -99.99  5.40
2019/06/25 16:36 EDT  -99.99 -99.99    7  300   13  97.3 -99.9 1017.1 -9.9 -9.999  45.2 -99.99  5.40
2019/06/25 16:42 EDT  -99.99 -99.99   10  316   12  96.1 -99.9 1017.0 -9.9 -9.999  46.4 -99.99  5.40
2019/06/25 16:48 EDT  -99.99 -99.99    6  311   12  96.8 -99.9 1017.0 -9.9 -9.999  45.5 -99.99  5.40
2019/06/25 16:54 EDT  -99.99 -99.99    9  290   12  96.1 -99.9 1016.9 -9.9 -9.999  46.3 -99.99  5.40
2019/06/25 17:00 EDT  -99.99 -99.99    7  289   10  96.8 -99.9 1016.9 -9.9 -9.999  46.0 -99.99  5.40
2019/06/25 17:06 EDT  -99.99 -99.99    8  287   11  95.5 -99.9 1016.9 -9.9 -9.999  47.0 -99.99  5.40
2019/06/25 17:12 EDT  -99.99 -99.99    4  308   12  95.9 -99.9 1016.8 -9.9 -9.999  46.0 -99.99  5.40
2019/06/25 17:18 EDT  -99.99 -99.99    8  314   11  96.1 -99.9 1016.8 -9.9 -9.999  46.0 -99.99  5.40
2019/06/25 17:24 EDT  -99.99 -99.99    7  303   14  96.3 -99.9 1016.8 -9.9 -9.999  45.9 -99.99  5.40
2019/06/25 17:30 EDT  -99.99 -99.99    8  318   15  97.2 -99.9 1016.8 -9.9 -9.999  44.8 -99.99  5.40
2019/06/25 17:36 EDT  -99.99 -99.99    9  331   13  96.8 -99.9 1016.7 -9.9 -9.999  45.6 -99.99  5.40
2019/06/25 17:42 EDT  -99.99 -99.99   10  338   13  97.0 -99.9 1016.7 -9.9 -9.999  45.0 -99.99  5.40
2019/06/25 17:48 EDT  -99.99 -99.99    9  277   13  96.6 -99.9 1016.6 -9.9 -9.999  45.2 -99.99  5.40
2019/06/25 17:54 EDT  -99.99 -99.99    8  302   13  96.8 -99.9 1016.6 -9.9 -9.999  45.8 -99.99  5.40
2019/06/25 18:00 EDT  -99.99 -99.99    9  335   15  96.8 -99.9 1016.5 -9.9 -9.999  45.6 -99.99  5.40
2019/06/25 18:06 EDT  -99.99 -99.99    6  293   12  96.4 -99.9 1016.5 -9.9 -9.999  45.3 -99.99  5.40
2019/06/25 18:12 EDT  -99.99 -99.99    8  310   12  96.3 -99.9 1016.4 -9.9 -9.999  45.5 -99.99  5.40
2019/06/25 18:18 EDT  -99.99 -99.99    7  338   14  96.8 -99.9 1016.4 -9.9 -9.999  45.3 -99.99  5.40
2019/06/25 18:24 EDT  -99.99 -99.99    5  311    9  96.1 -99.9 1016.5 -9.9 -9.999  46.7 -99.99  5.40
2019/06/25 18:30 EDT  -99.99 -99.99    7  294   11  96.4 -99.9 1016.5 -9.9 -9.999  45.4 -99.99  5.40
2019/06/25 18:36 EDT  -99.99 -99.99    4   73    7  95.7 -99.9 1016.4 -9.9 -9.999  45.8 -99.99  5.40
2019/06/25 18:42 EDT  -99.99 -99.99    4   59    6  93.6 -99.9 1016.5 -9.9 -9.999  57.4 -99.99  5.40
2019/06/25 18:48 EDT  -99.99 -99.99    4   73    6  91.9 -99.9 1016.5 -9.9 -9.999  61.8 -99.99  5.40
2019/06/25 18:54 EDT  -99.99 -99.99    5   82    7  90.9 -99.9 1016.6 -9.9 -9.999  65.8 -99.99  5.40
2019/06/25 19:00 EDT  -99.99 -99.99    4   89    7  90.1 -99.9 1016.8 -9.9 -9.999  67.5 -99.99  5.40
2019/06/25 19:06 EDT  -99.99 -99.99    6   98    7  89.6 -99.9 1016.8 -9.9 -9.999  66.2 -99.99  5.40
2019/06/25 19:12 EDT  -99.99 -99.99    6  105    8  89.4 -99.9 1016.7 -9.9 -9.999  68.8 -99.99  5.40
2019/06/25 19:18 EDT  -99.99 -99.99    5  121    7  89.6 -99.9 1016.8 -9.9 -9.999  67.7 -99.99  5.40
2019/06/25 19:24 EDT  -99.99 -99.99    4  106    6  89.4 -99.9 1016.8 -9.9 -9.999  68.5 -99.99  5.40
2019/06/25 19:30 EDT  -99.99 -99.99    4   94    5  89.4 -99.9 1016.9 -9.9 -9.999  69.4 -99.99  5.40
2019/06/25 19:36 EDT  -99.99 -99.99    4   97    5  89.2 -99.9 1016.8 -9.9 -9.999  69.2 -99.99  5.40
2019/06/25 19:42 EDT  -99.99 -99.99    4  118    5  88.9 -99.9 1016.9 -9.9 -9.999  70.7 -99.99  5.40
2019/06/25 19:48 EDT  -99.99 -99.99    3  158    4  89.1 -99.9 1017.0 -9.9 -9.999  71.4 -99.99  5.40
2019/06/25 19:54 EDT  -99.99 -99.99    2  124    4  88.7 -99.9 1017.1 -9.9 -9.999  68.9 -99.99  5.40
2019/06/25 20:00 EDT  -99.99 -99.99    1  125    2  89.2 -99.9 1017.1 -9.9 -9.999  70.0 -99.99  5.40
2019/06/25 20:06 EDT  -99.99 -99.99    0  163    1  89.4 -99.9 1017.1 -9.9 -9.999  69.5 -99.99  5.40
2019/06/25 20:12 EDT  -99.99 -99.99    0  163    1  89.4 -99.9 1017.1 -9.9 -9.999  68.1 -99.99  5.40
2019/06/25 20:18 EDT  -99.99 -99.99    0  163    1  89.1 -99.9 1017.2 -9.9 -9.999  68.9 -99.99  5.40
2019/06/25 20:24 EDT  -99.99 -99.99    1   80    2  89.1 -99.9 1017.2 -9.9 -9.999  69.8 -99.99  5.40
2019/06/25 20:30 EDT  -99.99 -99.99    2  119    2  88.9 -99.9 1017.3 -9.9 -9.999  70.2 -99.99  5.40
2019/06/25 20:36 EDT  -99.99 -99.99    4  149    5  88.3 -99.9 1017.3 -9.9 -9.999  72.2 -99.99  5.40
2019/06/25 20:42 EDT  -99.99 -99.99    4  152    5  88.0 -99.9 1017.4 -9.9 -9.999  72.0 -99.99  5.40
2019/06/25 20:48 EDT  -99.99 -99.99    6  157    7  88.0 -99.9 1017.6 -9.9 -9.999  72.3 -99.99  5.40
2019/06/25 20:54 EDT  -99.99 -99.99    4  159    7  87.3 -99.9 1017.6 -9.9 -9.999  72.1 -99.99  5.40
2019/06/25 21:00 EDT  -99.99 -99.99    6  174    7  87.1 -99.9 1017.6 -9.9 -9.999  72.7 -99.99  5.40
2019/06/25 21:06 EDT  -99.99 -99.99    5  189    7  86.7 -99.9 1017.7 -9.9 -9.999  73.4 -99.99  5.40
2019/06/25 21:12 EDT  -99.99 -99.99    4  179    7  86.2 -99.9 1017.7 -9.9 -9.999  74.2 -99.99  5.40
2019/06/25 21:18 EDT  -99.99 -99.99    3  183    5  86.0 -99.9 1017.8 -9.9 -9.999  74.5 -99.99  5.40
2019/06/25 21:24 EDT  -99.99 -99.99    6  175    7  85.8 -99.9 1017.9 -9.9 -9.999  75.2 -99.99  5.40
2019/06/25 21:30 EDT  -99.99 -99.99    5  170    7  85.3 -99.9 1017.9 -9.9 -9.999  75.0 -99.99  5.40
2019/06/25 21:36 EDT  -99.99 -99.99    4  178    7  85.3 -99.9 1017.9 -9.9 -9.999  75.4 -99.99  5.40
2019/06/25 21:42 EDT  -99.99 -99.99    7  172    9  85.5 -99.9 1017.9 -9.9 -9.999  75.7 -99.99  5.40
2019/06/25 21:48 EDT  -99.99 -99.99    4  185    7  85.1 -99.9 1018.0 -9.9 -9.999  76.1 -99.99  5.40
2019/06/25 21:54 EDT  -99.99 -99.99    6  183    6  85.1 -99.9 1018.1 -9.9 -9.999  76.9 -99.99  5.40
2019/06/25 22:00 EDT  -99.99 -99.99    4  188    6  84.7 -99.9 1018.2 -9.9 -9.999  77.6 -99.99  5.40
2019/06/25 22:06 EDT  -99.99 -99.99    3  189    4  84.9 -99.9 1018.4 -9.9 -9.999  78.8 -99.99  5.40
2019/06/25 22:12 EDT  -99.99 -99.99    4  179    5  84.7 -99.9 1018.6 -9.9 -9.999  79.9 -99.99  5.40
2019/06/25 22:18 EDT  -99.99 -99.99    5  177    6  84.7 -99.9 1018.8 -9.9 -9.999  80.7 -99.99  5.40
2019/06/25 22:24 EDT  -99.99 -99.99    4  182    6  84.6 -99.9 1018.9 -9.9 -9.999  80.6 -99.99  5.40
2019/06/25 22:30 EDT  -99.99 -99.99    6  181    7  84.6 -99.9 1019.0 -9.9 -9.999  81.1 -99.99  5.40
2019/06/25 22:36 EDT  -99.99 -99.99    6  175    7  84.6 -99.9 1019.1 -9.9 -9.999  80.3 -99.99  5.40
2019/06/25 22:42 EDT  -99.99 -99.99    4  193    6  84.7 -99.9 1019.0 -9.9 -9.999  80.5 -99.99  5.40
2019/06/25 22:48 EDT  -99.99 -99.99    3  179    4  84.6 -99.9 1019.1 -9.9 -9.999  81.0 -99.99  5.40
2019/06/25 22:54 EDT  -99.99 -99.99    6  176    7  84.2 -99.9 1019.0 -9.9 -9.999  81.7 -99.99  5.40
2019/06/25 23:00 EDT  -99.99 -99.99    7  176    8  84.0 -99.9 1019.1 -9.9 -9.999  81.8 -99.99  5.40
2019/06/25 23:06 EDT  -99.99 -99.99    5  189    8  84.2 -99.9 1019.1 -9.9 -9.999  82.6 -99.99  5.40
2019/06/25 23:12 EDT  -99.99 -99.99    5  182    6  84.2 -99.9 1019.2 -9.9 -9.999  83.5 -99.99  5.40
2019/06/25 23:18 EDT  -99.99 -99.99    5  183    7  84.0 -99.9 1019.3 -9.9 -9.999  84.2 -99.99  5.40
2019/06/25 23:24 EDT  -99.99 -99.99    5  190    8  84.0 -99.9 1019.3 -9.9 -9.999  84.9 -99.99  5.40
2019/06/25 23:30 EDT  -99.99 -99.99    5  190    6  83.8 -99.9 1019.3 -9.9 -9.999  84.8 -99.99  5.40
2019/06/25 23:36 EDT  -99.99 -99.99    5  184    6  83.7 -99.9 1019.4 -9.9 -9.999  85.1 -99.99  5.40
2019/06/25 23:42 EDT  -99.99 -99.99    5  194    7  83.5 -99.9 1019.3 -9.9 -9.999  85.5 -99.99  5.40
2019/06/25 23:48 EDT  -99.99 -99.99    5  183    7  83.7 -99.9 1019.4 -9.9 -9.999  85.7 -99.99  5.40
2019/06/25 23:54 EDT  -99.99 -99.99    6  181    8  83.7 -99.9 1019.4 -9.9 -9.999  86.9 -99.99  5.40
2019/06/26 00:00 EDT  -99.99 -99.99    8  187    9  83.3 -99.9 1019.4 -9.9 -9.999  87.6 -99.99  5.40
2019/06/26 00:06 EDT  -99.99 -99.99    8  192   10  83.1 -99.9 1019.4 -9.9 -9.999  87.5 -99.99  5.40
2019/06/26 00:12 EDT  -99.99 -99.99    7  185    9  83.1 -99.9 1019.5 -9.9 -9.999  87.0 -99.99  5.40
2019/06/26 00:18 EDT  -99.99 -99.99    6  199    9  82.8 -99.9 1019.6 -9.9 -9.999  86.5 -99.99  5.40
2019/06/26 00:24 EDT  -99.99 -99.99    8  201    9  82.9 -99.9 1019.6 -9.9 -9.999  86.7 -99.99  5.40
2019/06/26 00:30 EDT  -99.99 -99.99    8  196    9  82.8 -99.9 1019.6 -9.9 -9.999  87.8 -99.99  5.40
2019/06/26 00:36 EDT  -99.99 -99.99    6  208    8  82.8 -99.9 1019.6 -9.9 -9.999  87.9 -99.99  5.40
2019/06/26 00:42 EDT  -99.99 -99.99    5  203    6  82.6 -99.9 1019.6 -9.9 -9.999  88.4 -99.99  5.40
2019/06/26 00:48 EDT  -99.99 -99.99    4  212    6  82.6 -99.9 1019.5 -9.9 -9.999  89.1 -99.99  5.40
2019/06/26 00:54 EDT  -99.99 -99.99    5  201    6  82.4 -99.9 1019.5 -9.9 -9.999  89.1 -99.99  5.40
2019/06/26 01:00 EDT  -99.99 -99.99    6  204    6  82.4 -99.9 1019.5 -9.9 -9.999  89.8 -99.99  5.40
2019/06/26 01:06 EDT  -99.99 -99.99    5  214    6  82.2 -99.9 1019.5 -9.9 -9.999  90.4 -99.99  5.40
2019/06/26 01:12 EDT  -99.99 -99.99    4  219    6  81.9 -99.9 1019.5 -9.9 -9.999  91.5 -99.99  5.40
2019/06/26 01:18 EDT  -99.99 -99.99    4  208    6  82.0 -99.9 1019.5 -9.9 -9.999  92.3 -99.99  5.40
2019/06/26 01:24 EDT  -99.99 -99.99    5  210    6  82.2 -99.9 1019.5 -9.9 -9.999  93.3 -99.99  5.40
2019/06/26 01:30 EDT  -99.99 -99.99    5  210    6  81.9 -99.9 1019.5 -9.9 -9.999  92.9 -99.99  5.40
2019/06/26 01:36 EDT  -99.99 -99.99    5  212    6  81.9 -99.9 1019.6 -9.9 -9.999  92.5 -99.99  5.40
2019/06/26 01:42 EDT  -99.99 -99.99    4  213    6  81.9 -99.9 1019.5 -9.9 -9.999  92.5 -99.99  5.40
2019/06/26 01:48 EDT  -99.99 -99.99    5  203    6  81.7 -99.9 1019.4 -9.9 -9.999  92.4 -99.99  5.40
2019/06/26 01:54 EDT  -99.99 -99.99    6  204    7  81.9 -99.9 1019.4 -9.9 -9.999  92.2 -99.99  5.40
2019/06/26 02:00 EDT  -99.99 -99.99    5  213    6  81.7 -99.9 1019.4 -9.9 -9.999  91.7 -99.99  5.40
2019/06/26 02:06 EDT  -99.99 -99.99    4  220    5  81.9 -99.9 1019.4 -9.9 -9.999  91.8 -99.99  5.40
2019/06/26 02:12 EDT  -99.99 -99.99    3  227    4  81.9 -99.9 1019.4 -9.9 -9.999  92.5 -99.99  5.40
2019/06/26 02:18 EDT  -99.99 -99.99    4  231    4  81.5 -99.9 1019.3 -9.9 -9.999  93.5 -99.99  5.40
2019/06/26 02:24 EDT  -99.99 -99.99 -999 -999 -999 -99.9 -99.9 -999.9 -9.9 -9.999 -99.9 -99.99 -9.99
2019/06/26 02:30 EDT  -99.99 -99.99    4  225    5  81.1 -99.9 1019.1 -9.9 -9.999  94.4 -99.99  5.40
2019/06/26 02:36 EDT  -99.99 -99.99    4  221    5  81.3 -99.9 1019.1 -9.9 -9.999  94.3 -99.99  5.40
2019/06/26 02:42 EDT  -99.99 -99.99    4  214    4  81.3 -99.9 1019.1 -9.9 -9.999  94.7 -99.99  5.40
2019/06/26 02:48 EDT  -99.99 -99.99    3  218    4  81.5 -99.9 1019.1 -9.9 -9.999  95.1 -99.99  5.40
2019/06/26 02:54 EDT  -99.99 -99.99    3  215    3  81.3 -99.9 1019.1 -9.9 -9.999  95.6 -99.99  5.40
2019/06/26 03:00 EDT  -99.99 -99.99    3  211    4  80.8 -99.9 1019.1 -9.9 -9.999  95.8 -99.99  5.40
2019/06/26 03:06 EDT  -99.99 -99.99    3  214    4  80.8 -99.9 1019.0 -9.9 -9.999  96.3 -99.99  5.40
2019/06/26 03:12 EDT  -99.99 -99.99    3  223    4  81.0 -99.9 1019.0 -9.9 -9.999  97.2 -99.99  5.40
2019/06/26 03:18 EDT  -99.99 -99.99    4  223    4  81.1 -99.9 1018.9 -9.9 -9.999  98.0 -99.99  5.40
2019/06/26 03:24 EDT  -99.99 -99.99    4  223    4  81.1 -99.9 1018.9 -9.9 -9.999  98.1 -99.99  5.40
2019/06/26 03:30 EDT  -99.99 -99.99    4  219    5  81.5 -99.9 1018.9 -9.9 -9.999  98.3 -99.99  5.40
2019/06/26 03:36 EDT  -99.99 -99.99    4  212    5  81.5 -99.9 1018.9 -9.9 -9.999  98.8 -99.99  5.40
2019/06/26 03:42 EDT  -99.99 -99.99    4  215    5  81.3 -99.9 1018.9 -9.9 -9.999  99.4 -99.99  5.40
2019/06/26 03:48 EDT  -99.99 -99.99    4  218    5  81.1 -99.9 1019.0 -9.9 -9.999  99.9 -99.99  5.40
2019/06/26 03:54 EDT  -99.99 -99.99    4  218    5  81.1 -99.9 1018.9 -9.9 -9.999 100.0 -99.99  5.40
2019/06/26 04:00 EDT  -99.99 -99.99    4  220    5  81.3 -99.9 1018.9 -9.9 -9.999 100.0 -99.99  5.40
2019/06/26 04:06 EDT  -99.99 -99.99    4  224    5  81.1 -99.9 1019.0 -9.9 -9.999 100.0 -99.99  5.40
2019/06/26 04:12 EDT  -99.99 -99.99    4  221    5  81.3 -99.9 1019.0 -9.9 -9.999 100.0 -99.99  5.40
2019/06/26 04:18 EDT  -99.99 -99.99    3  250    4  81.3 -99.9 1019.0 -9.9 -9.999 100.0 -99.99  5.40
2019/06/26 04:24 EDT  -99.99 -99.99    2  278    4  81.1 -99.9 1019.1 -9.9 -9.999 100.0 -99.99  5.40
2019/06/26 04:30 EDT  -99.99 -99.99    2  321    4  81.3 -99.9 1019.0 -9.9 -9.999 100.0 -99.99  5.40
2019/06/26 04:36 EDT  -99.99 -99.99    2  287    3  81.5 -99.9 1019.1 -9.9 -9.999 100.0 -99.99  5.40
2019/06/26 04:42 EDT  -99.99 -99.99    3  304    3  81.5 -99.9 1019.2 -9.9 -9.999 100.0 -99.99  5.40
2019/06/26 04:48 EDT  -99.99 -99.99    4  301    4  81.7 -99.9 1019.3 -9.9 -9.999 100.0 -99.99  5.40
2019/06/26 04:54 EDT  -99.99 -99.99    4  314    4  81.7 -99.9 1019.3 -9.9 -9.999 100.0 -99.99  5.40
2019/06/26 05:00 EDT  -99.99 -99.99    4  323    4  81.7 -99.9 1019.3 -9.9 -9.999 100.0 -99.99  5.40
2019/06/26 05:06 EDT  -99.99 -99.99    4  317    5  81.7 -99.9 1019.2 -9.9 -9.999 100.0 -99.99  5.40
2019/06/26 05:12 EDT  -99.99 -99.99    5  312    6  81.3 -99.9 1019.2 -9.9 -9.999 100.0 -99.99  5.40
2019/06/26 05:18 EDT  -99.99 -99.99    5  319    6  80.8 -99.9 1019.3 -9.9 -9.999 100.0 -99.99  5.40
2019/06/26 05:24 EDT  -99.99 -99.99    4  322    6  80.8 -99.9 1019.2 -9.9 -9.999  99.6 -99.99  5.40
2019/06/26 05:30 EDT  -99.99 -99.99    5  321    6  80.8 -99.9 1019.2 -9.9 -9.999  97.0 -99.99  5.40
2019/06/26 05:36 EDT  -99.99 -99.99    5  324    7  80.6 -99.9 1019.2 -9.9 -9.999  93.2 -99.99  5.40
2019/06/26 05:42 EDT  -99.99 -99.99    6  324    8  80.6 -99.9 1019.3 -9.9 -9.999  87.0 -99.99  5.40
2019/06/26 05:48 EDT  -99.99 -99.99    6  319    8  80.8 -99.9 1019.3 -9.9 -9.999  82.3 -99.99  5.40
2019/06/26 05:54 EDT  -99.99 -99.99    6  322    7  81.0 -99.9 1019.5 -9.9 -9.999  80.3 -99.99  5.40
2019/06/26 06:00 EDT  -99.99 -99.99    4  323    6  80.8 -99.9 1019.5 -9.9 -9.999  80.1 -99.99  5.40
2019/06/26 06:06 EDT  -99.99 -99.99    4  325    6  80.8 -99.9 1019.5 -9.9 -9.999  80.7 -99.99  5.40
2019/06/26 06:12 EDT  -99.99 -99.99    4  331    5  80.6 -99.9 1019.5 -9.9 -9.999  81.2 -99.99  5.40
2019/06/26 06:18 EDT  -99.99 -99.99    4  337    6  80.2 -99.9 1019.6 -9.9 -9.999  81.5 -99.99  5.40
2019/06/26 06:24 EDT  -99.99 -99.99    3  342    5  80.1 -99.9 1019.7 -9.9 -9.999  82.3 -99.99  5.40
2019/06/26 06:30 EDT  -99.99 -99.99    3  334    4  79.9 -99.9 1019.7 -9.9 -9.999  83.3 -99.99  5.40
2019/06/26 06:36 EDT  -99.99 -99.99    3  338    5  79.5 -99.9 1019.8 -9.9 -9.999  83.8 -99.99  5.40
2019/06/26 06:42 EDT  -99.99 -99.99    3  355    4  79.5 -99.9 1019.9 -9.9 -9.999  84.4 -99.99  5.40
2019/06/26 06:48 EDT  -99.99 -99.99    3  347    4  79.5 -99.9 1019.9 -9.9 -9.999  85.0 -99.99  5.40
2019/06/26 06:54 EDT  -99.99 -99.99    2  340    4  79.3 -99.9 1019.9 -9.9 -9.999  85.4 -99.99  5.40
2019/06/26 07:00 EDT  -99.99 -99.99    3  325    5  79.5 -99.9 1020.0 -9.9 -9.999  85.7 -99.99  5.40
2019/06/26 07:06 EDT  -99.99 -99.99    3  339    4  79.5 -99.9 1020.2 -9.9 -9.999  85.5 -99.99  5.40
2019/06/26 07:12 EDT  -99.99 -99.99    3  338    4  79.9 -99.9 1020.3 -9.9 -9.999  85.7 -99.99  5.40
2019/06/26 07:18 EDT  -99.99 -99.99    4  347    6  80.1 -99.9 1020.4 -9.9 -9.999  85.7 -99.99  5.40
2019/06/26 07:24 EDT  -99.99 -99.99    4  351    6  80.4 -99.9 1020.5 -9.9 -9.999  86.0 -99.99  5.40
2019/06/26 07:30 EDT  -99.99 -99.99    4  351    7  80.4 -99.9 1020.5 -9.9 -9.999  86.2 -99.99  5.40
2019/06/26 07:36 EDT  -99.99 -99.99    3  358    6  80.6 -99.9 1020.6 -9.9 -9.999  86.8 -99.99  5.40
2019/06/26 07:42 EDT  -99.99 -99.99    4    2    6  81.0 -99.9 1020.6 -9.9 -9.999  86.8 -99.99  5.40
2019/06/26 07:48 EDT  -99.99 -99.99    3    9    5  81.3 -99.9 1020.7 -9.9 -9.999  87.0 -99.99  5.40
2019/06/26 07:54 EDT  -99.99 -99.99    4  357    7  82.0 -99.9 1020.7 -9.9 -9.999  87.0 -99.99  5.40
2019/06/26 08:00 EDT  -99.99 -99.99    4  355    6  82.2 -99.9 1020.7 -9.9 -9.999  86.6 -99.99  5.40
2019/06/26 08:06 EDT  -99.99 -99.99    4  355    7  82.2 -99.9 1020.8 -9.9 -9.999  86.1 -99.99  5.40
2019/06/26 08:12 EDT  -99.99 -99.99    6   10    7  82.4 -99.9 1020.8 -9.9 -9.999  85.9 -99.99  5.40
2019/06/26 08:18 EDT  -99.99 -99.99    5    6    7  82.8 -99.9 1020.8 -9.9 -9.999  85.8 -99.99  5.40
2019/06/26 08:24 EDT  -99.99 -99.99    4  359    6  83.3 -99.9 1020.9 -9.9 -9.999  86.2 -99.99  5.40
2019/06/26 08:30 EDT  -99.99 -99.99    4  356    7  83.3 -99.9 1021.0 -9.9 -9.999  85.4 -99.99  5.40
2019/06/26 08:36 EDT  -99.99 -99.99    5   10    7  83.8 -99.9 1021.1 -9.9 -9.999  85.0 -99.99  5.40
2019/06/26 08:42 EDT  -99.99 -99.99    7   23    8  84.2 -99.9 1021.2 -9.9 -9.999  84.2 -99.99  5.40
2019/06/26 08:48 EDT  -99.99 -99.99    4   19    6  84.0 -99.9 1021.3 -9.9 -9.999  83.9 -99.99  5.40
2019/06/26 08:54 EDT  -99.99 -99.99    6   18    8  84.2 -99.9 1021.3 -9.9 -9.999  83.3 -99.99  5.40
2019/06/26 09:00 EDT  -99.99 -99.99    6   12    8  84.7 -99.9 1021.3 -9.9 -9.999  81.7 -99.99  5.40
2019/06/26 09:06 EDT  -99.99 -99.99    7   36   11  85.1 -99.9 1021.3 -9.9 -9.999  78.3 -99.99  4.09
2019/06/26 09:12 EDT  -99.99 -99.99    9   22   11  85.6 -99.9 1021.3 -9.9 -9.999  75.8 -99.99  5.40
2019/06/26 09:18 EDT  -99.99 -99.99   10   27   12  85.5 -99.9 1021.4 -9.9 -9.999  71.8 -99.99  4.47
2019/06/26 09:24 EDT  -99.99 -99.99   10   30   14  85.6 -99.9 1021.4 -9.9 -9.999  70.4 -99.99  5.40
2019/06/26 09:30 EDT  -99.99 -99.99    9   26   13  86.2 -99.9 1021.5 -9.9 -9.999  68.5 -99.99  3.38
2019/06/26 09:36 EDT  -99.99 -99.99   10   20   13  86.5 -99.9 1021.4 -9.9 -9.999  65.7 -99.99  5.40
2019/06/26 09:42 EDT  -99.99 -99.99    7   36   10  86.5 -99.9 1021.4 -9.9 -9.999  64.2 -99.99  5.40
2019/06/26 09:48 EDT  -99.99 -99.99   10   34   12  87.3 -99.9 1021.5 -9.9 -9.999  64.4 -99.99  5.40
2019/06/26 09:54 EDT  -99.99 -99.99   11   37   13  86.9 -99.9 1021.5 -9.9 -9.999  63.2 -99.99  5.40
2019/06/26 10:00 EDT  -99.99 -99.99   10   44   14  86.9 -99.9 1021.4 -9.9 -9.999  60.8 -99.99  5.40
2019/06/26 10:06 EDT  -99.99 -99.99    9   38   13  87.1 -99.9 1021.4 -9.9 -9.999  60.0 -99.99  5.40
2019/06/26 10:12 EDT  -99.99 -99.99    8   46   13  87.1 -99.9 1021.4 -9.9 -9.999  61.8 -99.99  5.40
2019/06/26 10:18 EDT  -99.99 -99.99   10   47   13  87.6 -99.9 1021.4 -9.9 -9.999  59.8 -99.99  5.40
2019/06/26 10:24 EDT  -99.99 -99.99   11   36   14  87.4 -99.9 1021.4 -9.9 -9.999  58.6 -99.99  5.40
2019/06/26 10:30 EDT  -99.99 -99.99   13   29   15  87.4 -99.9 1021.3 -9.9 -9.999  58.1 -99.99  5.40
2019/06/26 10:36 EDT  -99.99 -99.99   12   13   15  87.3 -99.9 1021.3 -9.9 -9.999  55.4 -99.99  5.40
2019/06/26 10:42 EDT  -99.99 -99.99    8   26   13  87.8 -99.9 1021.3 -9.9 -9.999  54.8 -99.99  5.40
2019/06/26 10:48 EDT  -99.99 -99.99   11   42   13  88.0 -99.9 1021.3 -9.9 -9.999  58.7 -99.99  5.40
2019/06/26 10:54 EDT  -99.99 -99.99    8   31   13  88.2 -99.9 1021.4 -9.9 -9.999  56.5 -99.99  5.40
2019/06/26 11:00 EDT  -99.99 -99.99   10   48   11  88.0 -99.9 1021.4 -9.9 -9.999  57.6 -99.99  5.40
2019/06/26 11:06 EDT  -99.99 -99.99   10   30   15  88.0 -99.9 1021.4 -9.9 -9.999  57.8 -99.99  5.40
2019/06/26 11:12 EDT  -99.99 -99.99   10   51   12  87.8 -99.9 1021.5 -9.9 -9.999  56.0 -99.99  5.40
2019/06/26 11:18 EDT  -99.99 -99.99    9   33   12  88.2 -99.9 1021.5 -9.9 -9.999  56.2 -99.99  5.40
2019/06/26 11:24 EDT  -99.99 -99.99   10   52   13  87.8 -99.9 1021.6 -9.9 -9.999  60.3 -99.99  5.40
2019/06/26 11:30 EDT  -99.99 -99.99   10   45   16  87.8 -99.9 1021.6 -9.9 -9.999  58.3 -99.99  5.40
2019/06/26 11:36 EDT  -99.99 -99.99   11   35   14  88.0 -99.9 1021.7 -9.9 -9.999  57.3 -99.99  5.40
2019/06/26 11:42 EDT  -99.99 -99.99    9   42   14  88.2 -99.9 1021.7 -9.9 -9.999  54.8 -99.99  5.40
2019/06/26 11:48 EDT  -99.99 -99.99   12   44   14  88.2 -99.9 1021.7 -9.9 -9.999  55.4 -99.99  5.40
2019/06/26 11:54 EDT  -99.99 -99.99   11   30   14  88.2 -99.9 1021.8 -9.9 -9.999  55.7 -99.99  5.40
2019/06/26 12:00 EDT  -99.99 -99.99   10   46   15  88.3 -99.9 1021.8 -9.9 -9.999  53.9 -99.99  5.40
2019/06/26 12:06 EDT  -99.99 -99.99   11   40   14  88.7 -99.9 1021.8 -9.9 -9.999  54.9 -99.99  5.40
2019/06/26 12:12 EDT  -99.99 -99.99   11   41   13  88.5 -99.9 1021.8 -9.9 -9.999  54.0 -99.99  5.40
2019/06/26 12:18 EDT  -99.99 -99.99   11   63   14  88.3 -99.9 1021.8 -9.9 -9.999  54.9 -99.99  5.40
2019/06/26 12:24 EDT  -99.99 -99.99   10   68   16  88.9 -99.9 1021.7 -9.9 -9.999  53.8 -99.99  5.40
2019/06/26 12:30 EDT  -99.99 -99.99    9   49   13  88.7 -99.9 1021.6 -9.9 -9.999  54.4 -99.99  5.40
2019/06/26 12:36 EDT  -99.99 -99.99   10   71   13  88.2 -99.9 1021.7 -9.9 -9.999  56.3 -99.99  5.40
2019/06/26 12:42 EDT  -99.99 -99.99   10   55   13  88.9 -99.9 1021.5 -9.9 -9.999  55.2 -99.99  5.40
2019/06/26 12:48 EDT  -99.99 -99.99   10   65   14  89.1 -99.9 1021.5 -9.9 -9.999  55.8 -99.99  5.40
2019/06/26 12:54 EDT  -99.99 -99.99   11   73   15  89.6 -99.9 1021.5 -9.9 -9.999  55.0 -99.99  5.40
2019/06/26 13:00 EDT  -99.99 -99.99    9   63   15  90.1 -99.9 1021.5 -9.9 -9.999  54.0 -99.99  5.40
2019/06/26 13:06 EDT  -99.99 -99.99    9   62   13  89.6 -99.9 1021.5 -9.9 -9.999  54.4 -99.99  5.40
2019/06/26 13:12 EDT  -99.99 -99.99    9   65   14  90.1 -99.9 1021.4 -9.9 -9.999  54.7 -99.99  5.40
2019/06/26 13:18 EDT  -99.99 -99.99   10   38   13  90.3 -99.9 1021.4 -9.9 -9.999  53.3 -99.99  5.40
2019/06/26 13:24 EDT  -99.99 -99.99    8   58   13  89.1 -99.9 1021.4 -9.9 -9.999  54.9 -99.99  5.40
2019/06/26 13:30 EDT  -99.99 -99.99    9   52   11  89.8 -99.9 1021.3 -9.9 -9.999  52.9 -99.99  5.40
2019/06/26 13:36 EDT  -99.99 -99.99    9   70   11  89.2 -99.9 1021.3 -9.9 -9.999  52.7 -99.99  5.40
2019/06/26 13:42 EDT  -99.99 -99.99    8   55   12  90.1 -99.9 1021.2 -9.9 -9.999  53.9 -99.99  5.40
2019/06/26 13:48 EDT  -99.99 -99.99    9   51   12  90.0 -99.9 1021.0 -9.9 -9.999  53.7 -99.99  5.40
2019/06/26 13:54 EDT  -99.99 -99.99    8   70   12  90.0 -99.9 1020.9 -9.9 -9.999  53.2 -99.99  5.40
2019/06/26 14:00 EDT  -99.99 -99.99   10   76   13  90.5 -99.9 1020.9 -9.9 -9.999  53.5 -99.99  5.40
2019/06/26 14:06 EDT  -99.99 -99.99    8   51   12  90.3 -99.9 1020.9 -9.9 -9.999  51.9 -99.99  5.40
2019/06/26 14:12 EDT  -99.99 -99.99    7   65   12  90.5 -99.9 1020.9 -9.9 -9.999  52.9 -99.99  5.40
2019/06/26 14:18 EDT  -99.99 -99.99    7   90   10  90.0 -99.9 1020.8 -9.9 -9.999  53.2 -99.99  5.40
2019/06/26 14:24 EDT  -99.99 -99.99    8   88   10  89.6 -99.9 1020.8 -9.9 -9.999  56.7 -99.99  5.40
2019/06/26 14:30 EDT  -99.99 -99.99    8   97   14  90.5 -99.9 1020.7 -9.9 -9.999  55.0 -99.99  5.40
2019/06/26 14:36 EDT  -99.99 -99.99   11   84   13  89.2 -99.9 1020.7 -9.9 -9.999  59.7 -99.99  5.40
2019/06/26 14:42 EDT  -99.99 -99.99   11  102   14  89.8 -99.9 1020.7 -9.9 -9.999  56.7 -99.99  5.40
2019/06/26 14:48 EDT  -99.99 -99.99   11  102   13  89.2 -99.9 1020.6 -9.9 -9.999  57.5 -99.99  5.40
2019/06/26 14:54 EDT  -99.99 -99.99   10  101   13  89.4 -99.9 1020.6 -9.9 -9.999  54.9 -99.99  5.40
2019/06/26 15:00 EDT  -99.99 -99.99    9  104   13  89.4 -99.9 1020.5 -9.9 -9.999  56.7 -99.99  5.40
2019/06/26 15:06 EDT  -99.99 -99.99   10   96   12  89.6 -99.9 1020.5 -9.9 -9.999  56.6 -99.99  5.40
2019/06/26 15:12 EDT  -99.99 -99.99   10   99   12  89.1 -99.9 1020.4 -9.9 -9.999  54.9 -99.99  5.40
2019/06/26 15:18 EDT  -99.99 -99.99    8   90   11  88.9 -99.9 1020.4 -9.9 -9.999  56.4 -99.99  5.40
2019/06/26 15:24 EDT  -99.99 -99.99    8   78   10  89.8 -99.9 1020.4 -9.9 -9.999  52.8 -99.99  5.40
2019/06/26 15:30 EDT  -99.99 -99.99    8   94   11  90.5 -99.9 1020.3 -9.9 -9.999  53.5 -99.99  5.40
2019/06/26 15:36 EDT  -99.99 -99.99    8   93   11  89.1 -99.9 1020.3 -9.9 -9.999  56.8 -99.99  5.40
2019/06/26 15:42 EDT  -99.99 -99.99    9   94   11  89.4 -99.9 1020.2 -9.9 -9.999  55.0 -99.99  5.40
2019/06/26 15:48 EDT  -99.99 -99.99    9   98   11  89.1 -99.9 1020.2 -9.9 -9.999  55.7 -99.99  5.40
2019/06/26 15:54 EDT  -99.99 -99.99    9  103   12  89.1 -99.9 1020.0 -9.9 -9.999  55.6 -99.99  5.40
2019/06/26 16:00 EDT  -99.99 -99.99    8   94   11  89.4 -99.9 1020.0 -9.9 -9.999  55.0 -99.99  5.40
2019/06/26 16:06 EDT  -99.99 -99.99    6   93   10  89.1 -99.9 1019.9 -9.9 -9.999  53.0 -99.99  5.40
2019/06/26 16:12 EDT  -99.99 -99.99    7   92   10  89.6 -99.9 1019.8 -9.9 -9.999  53.8 -99.99  5.40
2019/06/26 16:18 EDT  -99.99 -99.99    6   91    9  89.2 -99.9 1019.8 -9.9 -9.999  52.9 -99.99  5.40
2019/06/26 16:24 EDT  -99.99 -99.99    7   93    9  89.4 -99.9 1019.8 -9.9 -9.999  52.2 -99.99  5.40
2019/06/26 16:30 EDT  -99.99 -99.99    8   98   10  89.6 -99.9 1019.8 -9.9 -9.999  54.3 -99.99  5.40
2019/06/26 16:36 EDT  -99.99 -99.99    8   97   10  89.2 -99.9 1019.7 -9.9 -9.999  55.3 -99.99  5.40
2019/06/26 16:42 EDT  -99.99 -99.99    6   92   11  88.5 -99.9 1019.7 -9.9 -9.999  58.1 -99.99  5.40
2019/06/26 16:48 EDT  -99.99 -99.99    7   93   11  89.1 -99.9 1019.6 -9.9 -9.999  55.2 -99.99  5.40
2019/06/26 16:54 EDT  -99.99 -99.99    8   88   10  88.7 -99.9 1019.6 -9.9 -9.999  56.8 -99.99  5.40
2019/06/26 17:00 EDT  -99.99 -99.99    9   89   11  88.5 -99.9 1019.5 -9.9 -9.999  56.3 -99.99  5.40
2019/06/26 17:06 EDT  -99.99 -99.99    8   94   11  88.9 -99.9 1019.5 -9.9 -9.999  57.9 -99.99  5.40
2019/06/26 17:12 EDT  -99.99 -99.99    8   94   11  88.3 -99.9 1019.6 -9.9 -9.999  58.7 -99.99  5.40
2019/06/26 17:18 EDT  -99.99 -99.99    9   99   11  88.2 -99.9 1019.5 -9.9 -9.999  60.6 -99.99  5.40
2019/06/26 17:24 EDT  -99.99 -99.99    8   99   11  88.2 -99.9 1019.5 -9.9 -9.999  61.8 -99.99  5.40
2019/06/26 17:30 EDT  -99.99 -99.99    8   98   10  88.0 -99.9 1019.6 -9.9 -9.999  60.8 -99.99  5.40
2019/06/26 17:36 EDT  -99.99 -99.99    9   93   11  87.6 -99.9 1019.6 -9.9 -9.999  60.3 -99.99  5.40
2019/06/26 17:42 EDT  -99.99 -99.99    7   95   11  87.3 -99.9 1019.6 -9.9 -9.999  60.6 -99.99  5.40
2019/06/26 17:48 EDT  -99.99 -99.99    6   91   10  87.1 -99.9 1019.7 -9.9 -9.999  62.2 -99.99  5.40
2019/06/26 17:54 EDT  -99.99 -99.99    7   89   10  87.4 -99.9 1019.7 -9.9 -9.999  59.2 -99.99  5.40
2019/06/26 18:00 EDT  -99.99 -99.99    8   86   10  87.3 -99.9 1019.7 -9.9 -9.999  60.8 -99.99  5.40
2019/06/26 18:06 EDT  -99.99 -99.99    8   91   10  87.1 -99.9 1019.7 -9.9 -9.999  58.4 -99.99  5.40
2019/06/26 18:12 EDT  -99.99 -99.99    8   89   10  87.3 -99.9 1019.7 -9.9 -9.999  58.4 -99.99  5.40
2019/06/26 18:18 EDT  -99.99 -99.99    7   94   11  87.1 -99.9 1019.8 -9.9 -9.999  59.7 -99.99  5.40
2019/06/26 18:24 EDT  -99.99 -99.99    8   91   10  86.7 -99.9 1019.7 -9.9 -9.999  60.8 -99.99  5.40
2019/06/26 18:30 EDT  -99.99 -99.99    7   97   10  86.5 -99.9 1019.7 -9.9 -9.999  60.4 -99.99  5.40
2019/06/26 18:36 EDT  -99.99 -99.99    8   97   11  86.5 -99.9 1019.7 -9.9 -9.999  59.4 -99.99  5.40
2019/06/26 18:42 EDT  -99.99 -99.99    8   96   10  86.5 -99.9 1019.7 -9.9 -9.999  58.2 -99.99  5.40
2019/06/26 18:48 EDT  -99.99 -99.99    6   98    9  86.4 -99.9 1019.8 -9.9 -9.999  60.3 -99.99  5.40
2019/06/26 18:54 EDT  -99.99 -99.99    8  102    9  86.4 -99.9 1019.7 -9.9 -9.999  61.6 -99.99  5.40
2019/06/26 19:00 EDT  -99.99 -99.99    7  103    9  86.2 -99.9 1019.7 -9.9 -9.999  61.4 -99.99  5.40
2019/06/26 19:06 EDT  -99.99 -99.99    7   99   10  86.0 -99.9 1019.7 -9.9 -9.999  62.1 -99.99  5.40
2019/06/26 19:12 EDT  -99.99 -99.99    6   99    8  86.2 -99.9 1019.7 -9.9 -9.999  63.0 -99.99  5.40
2019/06/26 19:18 EDT  -99.99 -99.99    6   95    8  86.2 -99.9 1019.7 -9.9 -9.999  62.5 -99.99  5.40
2019/06/26 19:24 EDT  -99.99 -99.99    7   96    9  85.8 -99.9 1019.7 -9.9 -9.999  63.1 -99.99  5.40
2019/06/26 19:30 EDT  -99.99 -99.99    6   88    9  85.6 -99.9 1019.7 -9.9 -9.999  64.1 -99.99  5.40
2019/06/26 19:36 EDT  -99.99 -99.99    5   96    9  85.8 -99.9 1019.8 -9.9 -9.999  63.7 -99.99  5.40
2019/06/26 19:42 EDT  -99.99 -99.99    6   96    8  85.6 -99.9 1019.8 -9.9 -9.999  64.4 -99.99  5.40
2019/06/26 19:48 EDT  -99.99 -99.99    5   90    8  85.5 -99.9 1019.8 -9.9 -9.999  65.4 -99.99  5.40
2019/06/26 19:54 EDT  -99.99 -99.99    6   96    8  85.1 -99.9 1019.9 -9.9 -9.999  65.4 -99.99  5.40
2019/06/26 20:00 EDT  -99.99 -99.99    5  100    8  84.9 -99.9 1019.9 -9.9 -9.999  66.1 -99.99  5.40
2019/06/26 20:06 EDT  -99.99 -99.99    6  110    8  84.9 -99.9 1019.9 -9.9 -9.999  66.5 -99.99  5.40
2019/06/26 20:12 EDT  -99.99 -99.99    5  104    7  84.7 -99.9 1019.9 -9.9 -9.999  67.5 -99.99  5.40
2019/06/26 20:18 EDT  -99.99 -99.99    6  101    8  84.7 -99.9 1019.9 -9.9 -9.999  68.5 -99.99  5.40
2019/06/26 20:24 EDT  -99.99 -99.99    5   94    8  84.2 -99.9 1019.9 -9.9 -9.999  67.9 -99.99  5.40
2019/06/26 20:30 EDT  -99.99 -99.99    6  102    7  84.2 -99.9 1019.9 -9.9 -9.999  68.7 -99.99  5.40
2019/06/26 20:36 EDT  -99.99 -99.99    6   97    8  84.0 -99.9 1019.9 -9.9 -9.999  69.5 -99.99  5.40
2019/06/26 20:42 EDT  -99.99 -99.99    5  107    8  83.8 -99.9 1019.8 -9.9 -9.999  70.0 -99.99  5.40
2019/06/26 20:48 EDT  -99.99 -99.99    5  105    7  84.0 -99.9 1019.8 -9.9 -9.999  71.0 -99.99  5.40
2019/06/26 20:54 EDT  -99.99 -99.99    4  113    6  83.7 -99.9 1019.8 -9.9 -9.999  71.2 -99.99  5.40
2019/06/26 21:00 EDT  -99.99 -99.99    5  115    6  83.8 -99.9 1019.8 -9.9 -9.999  72.1 -99.99  5.40
2019/06/26 21:06 EDT  -99.99 -99.99    3  132    5  83.5 -99.9 1019.9 -9.9 -9.999  72.2 -99.99  5.40
2019/06/26 21:12 EDT  -99.99 -99.99    3  136    5  83.5 -99.9 1019.9 -9.9 -9.999  72.8 -99.99  5.40
2019/06/26 21:18 EDT  -99.99 -99.99    3  147    4  83.3 -99.9 1020.0 -9.9 -9.999  72.9 -99.99  5.40
2019/06/26 21:24 EDT  -99.99 -99.99    2  148    3  83.1 -99.9 1020.1 -9.9 -9.999  73.1 -99.99  5.40
2019/06/26 21:30 EDT  -99.99 -99.99    2  135    3  83.3 -99.9 1020.1 -9.9 -9.999  73.2 -99.99  5.40
2019/06/26 21:36 EDT  -99.99 -99.99    3  142    4  83.3 -99.9 1020.2 -9.9 -9.999  73.5 -99.99  5.40
2019/06/26 21:42 EDT  -99.99 -99.99    2  140    3  82.9 -99.9 1020.2 -9.9 -9.999  73.6 -99.99  5.40
2019/06/26 21:48 EDT  -99.99 -99.99    2  144    3  83.1 -99.9 1020.3 -9.9 -9.999  74.0 -99.99  5.40
2019/06/26 21:54 EDT  -99.99 -99.99    2  150    3  82.9 -99.9 1020.4 -9.9 -9.999  74.3 -99.99  5.40
2019/06/26 22:00 EDT  -99.99 -99.99    2  160    3  82.9 -99.9 1020.4 -9.9 -9.999  74.6 -99.99  5.40
2019/06/26 22:06 EDT  -99.99 -99.99    2  165    3  82.6 -99.9 1020.5 -9.9 -9.999  74.4 -99.99  5.40
2019/06/26 22:12 EDT  -99.99 -99.99    2  150    2  82.6 -99.9 1020.6 -9.9 -9.999  74.5 -99.99  5.40
2019/06/26 22:18 EDT  -99.99 -99.99    2  166    3  82.8 -99.9 1020.6 -9.9 -9.999  74.9 -99.99  5.40
2019/06/26 22:24 EDT  -99.99 -99.99    2  196    3  82.6 -99.9 1020.6 -9.9 -9.999  75.1 -99.99  5.40
2019/06/26 22:30 EDT  -99.99 -99.99    2  204    2  82.8 -99.9 1020.7 -9.9 -9.999  75.3 -99.99  5.40
2019/06/26 22:36 EDT  -99.99 -99.99    2  196    3  82.4 -99.9 1020.7 -9.9 -9.999  75.7 -99.99  5.40
2019/06/26 22:42 EDT  -99.99 -99.99    2  188    3  82.4 -99.9 1020.8 -9.9 -9.999  75.9 -99.99  5.40
2019/06/26 22:48 EDT  -99.99 -99.99    2  189    2  82.2 -99.9 1020.8 -9.9 -9.999  76.4 -99.99  5.40
2019/06/26 22:54 EDT  -99.99 -99.99    2  190    2  82.2 -99.9 1020.8 -9.9 -9.999  76.5 -99.99  5.40
2019/06/26 23:00 EDT  -99.99 -99.99    1  204    2  82.0 -99.9 1020.8 -9.9 -9.999  76.6 -99.99  5.40
2019/06/26 23:06 EDT  -99.99 -99.99    2  204    2  82.2 -99.9 1020.9 -9.9 -9.999  77.0 -99.99  5.40
2019/06/26 23:12 EDT  -99.99 -99.99    2  200    2  82.2 -99.9 1020.9 -9.9 -9.999  77.1 -99.99  5.40
2019/06/26 23:18 EDT  -99.99 -99.99    2  201    2  82.2 -99.9 1021.0 -9.9 -9.999  77.4 -99.99  5.40
2019/06/26 23:24 EDT  -99.99 -99.99    1  198    2  82.0 -99.9 1021.0 -9.9 -9.999  77.9 -99.99  5.40
2019/06/26 23:30 EDT  -99.99 -99.99    1  202    2  82.2 -99.9 1020.9 -9.9 -9.999  79.0 -99.99  5.40
2019/06/26 23:36 EDT  -99.99 -99.99    2  193    3  82.2 -99.9 1021.0 -9.9 -9.999  79.5 -99.99  5.40
2019/06/26 23:42 EDT  -99.99 -99.99    2  204    3  82.0 -99.9 1020.9 -9.9 -9.999  80.4 -99.99  5.40
2019/06/26 23:48 EDT  -99.99 -99.99    3  202    3  82.0 -99.9 1021.0 -9.9 -9.999  82.2 -99.99  5.40
2019/06/26 23:54 EDT  -99.99 -99.99    3  204    3  81.9 -99.9 1021.1 -9.9 -9.999  84.3 -99.99  5.40
2019/06/27 00:00 EDT  -99.99 -99.99    3  213    4  81.7 -99.9 1021.1 -9.9 -9.999  86.1 -99.99  5.40
2019/06/27 00:06 EDT  -99.99 -99.99    3  206    4  81.3 -99.9 1021.1 -9.9 -9.999  87.1 -99.99  5.40
2019/06/27 00:12 EDT  -99.99 -99.99    3  202    3  81.5 -99.9 1021.1 -9.9 -9.999  88.2 -99.99  5.40
2019/06/27 00:18 EDT  -99.99 -99.99    3  190    3  81.1 -99.9 1021.1 -9.9 -9.999  90.2 -99.99  5.40
2019/06/27 00:24 EDT  -99.99 -99.99    2  200    3  81.0 -99.9 1021.2 -9.9 -9.999  91.2 -99.99  5.40
2019/06/27 00:30 EDT  -99.99 -99.99    3  214    3  81.0 -99.9 1021.2 -9.9 -9.999  91.6 -99.99  5.40
2019/06/27 00:36 EDT  -99.99 -99.99    3  222    3  81.1 -99.9 1021.2 -9.9 -9.999  92.1 -99.99  5.40
2019/06/27 00:42 EDT  -99.99 -99.99    2  236    3  80.6 -99.9 1021.3 -9.9 -9.999  92.3 -99.99  5.40
2019/06/27 00:48 EDT  -99.99 -99.99    2  241    3  80.6 -99.9 1021.2 -9.9 -9.999  92.9 -99.99  5.40
2019/06/27 00:54 EDT  -99.99 -99.99    3  218    3  80.4 -99.9 1021.3 -9.9 -9.999  92.8 -99.99  5.40
2019/06/27 01:00 EDT  -99.99 -99.99    3  219    3  80.6 -99.9 1021.2 -9.9 -9.999  92.2 -99.99  5.40
2019/06/27 01:06 EDT  -99.99 -99.99    3  226    4  80.4 -99.9 1021.2 -9.9 -9.999  90.9 -99.99  5.40
2019/06/27 01:12 EDT  -99.99 -99.99    3  223    4  80.8 -99.9 1021.2 -9.9 -9.999  90.1 -99.99  5.40
2019/06/27 01:18 EDT  -99.99 -99.99    3  226    4  80.8 -99.9 1021.1 -9.9 -9.999  89.6 -99.99  5.40
2019/06/27 01:24 EDT  -99.99 -99.99    2  244    3  80.6 -99.9 1021.1 -9.9 -9.999  89.1 -99.99  5.40
2019/06/27 01:30 EDT  -99.99 -99.99    2  247    2  80.6 -99.9 1021.0 -9.9 -9.999  89.8 -99.99  5.40
2019/06/27 01:36 EDT  -99.99 -99.99    2  248    3  80.8 -99.9 1021.0 -9.9 -9.999  89.8 -99.99  5.40
2019/06/27 01:42 EDT  -99.99 -99.99    2  264    3  80.4 -99.9 1020.8 -9.9 -9.999  88.8 -99.99  5.40
2019/06/27 01:48 EDT  -99.99 -99.99    2  270    2  80.4 -99.9 1020.8 -9.9 -9.999  86.3 -99.99  5.40
2019/06/27 01:54 EDT  -99.99 -99.99    2  289    3  81.0 -99.9 1020.8 -9.9 -9.999  83.4 -99.99  5.40
2019/06/27 02:00 EDT  -99.99 -99.99    3  299    4  81.1 -99.9 1020.8 -9.9 -9.999  81.4 -99.99  5.40
2019/06/27 02:06 EDT  -99.99 -99.99    3  316    4  81.3 -99.9 1020.8 -9.9 -9.999  77.3 -99.99  5.40
2019/06/27 02:12 EDT  -99.99 -99.99    3  314    3  81.9 -99.9 1020.7 -9.9 -9.999  78.2 -99.99  5.40
2019/06/27 02:18 EDT  -99.99 -99.99    2  316    3  81.9 -99.9 1020.7 -9.9 -9.999  80.7 -99.99  5.40
2019/06/27 02:24 EDT  -99.99 -99.99    3  302    3  81.5 -99.9 1020.6 -9.9 -9.999  82.7 -99.99  5.40
2019/06/27 02:30 EDT  -99.99 -99.99    3  306    3  81.0 -99.9 1020.7 -9.9 -9.999  84.6 -99.99  5.40
2019/06/27 02:36 EDT  -99.99 -99.99    2  304    4  80.6 -99.9 1020.6 -9.9 -9.999  85.1 -99.99  5.40
2019/06/27 02:42 EDT  -99.99 -99.99    2  312    4  80.4 -99.9 1020.6 -9.9 -9.999  84.8 -99.99  5.40
2019/06/27 02:48 EDT  -99.99 -99.99    3  307    4  79.9 -99.9 1020.6 -9.9 -9.999  84.1 -99.99  5.40
2019/06/27 02:54 EDT  -99.99 -99.99    3  313    4  79.5 -99.9 1020.6 -9.9 -9.999  82.3 -99.99  5.40
2019/06/27 03:00 EDT  -99.99 -99.99    3  304    4  79.9 -99.9 1020.6 -9.9 -9.999  80.8 -99.99  5.40
2019/06/27 03:06 EDT  -99.99 -99.99    2  340    3  79.9 -99.9 1020.6 -9.9 -9.999  80.2 -99.99  5.40
2019/06/27 03:12 EDT  -99.99 -99.99    3  337    4  80.4 -99.9 1020.6 -9.9 -9.999  81.8 -99.99  5.40
2019/06/27 03:18 EDT  -99.99 -99.99    4  336    5  80.1 -99.9 1020.6 -9.9 -9.999  83.6 -99.99  5.40
2019/06/27 03:24 EDT  -99.99 -99.99    3  333    5  79.3 -99.9 1020.6 -9.9 -9.999  82.4 -99.99  5.40
2019/06/27 03:30 EDT  -99.99 -99.99    3  329    4  79.5 -99.9 1020.5 -9.9 -9.999  81.8 -99.99  5.40
2019/06/27 03:36 EDT  -99.99 -99.99    3  338    4  79.5 -99.9 1020.6 -9.9 -9.999  82.3 -99.99  5.40
2019/06/27 03:42 EDT  -99.99 -99.99    2  353    4  79.5 -99.9 1020.6 -9.9 -9.999  83.5 -99.99  5.40
2019/06/27 03:48 EDT  -99.99 -99.99    3  340    3  79.5 -99.9 1020.6 -9.9 -9.999  84.1 -99.99  5.40
2019/06/27 03:54 EDT  -99.99 -99.99    2  354    3  79.0 -99.9 1020.7 -9.9 -9.999  84.3 -99.99  5.40
2019/06/27 04:00 EDT  -99.99 -99.99    2   10    3  79.0 -99.9 1020.7 -9.9 -9.999  84.0 -99.99  5.40
2019/06/27 04:06 EDT  -99.99 -99.99    2  343    2  79.5 -99.9 1020.6 -9.9 -9.999  84.5 -99.99  5.40
2019/06/27 04:12 EDT  -99.99 -99.99    2  341    3  79.0 -99.9 1020.6 -9.9 -9.999  84.9 -99.99  5.40
2019/06/27 04:18 EDT  -99.99 -99.99    2  335    3  79.0 -99.9 1020.6 -9.9 -9.999  84.4 -99.99  5.40
2019/06/27 04:24 EDT  -99.99 -99.99    1  354    2  79.0 -99.9 1020.6 -9.9 -9.999  84.0 -99.99  5.40
2019/06/27 04:30 EDT  -99.99 -99.99    1   28    2  79.2 -99.9 1020.6 -9.9 -9.999  84.9 -99.99  5.40
2019/06/27 04:36 EDT  -99.99 -99.99    2  351    3  79.2 -99.9 1020.6 -9.9 -9.999  85.6 -99.99  5.40
2019/06/27 04:42 EDT  -99.99 -99.99    2  335    3  78.8 -99.9 1020.6 -9.9 -9.999  86.2 -99.99  5.40
2019/06/27 04:48 EDT  -99.99 -99.99    2  333    3  78.8 -99.9 1020.6 -9.9 -9.999  85.5 -99.99  5.40
2019/06/27 04:54 EDT  -99.99 -99.99    2  342    3  78.8 -99.9 1020.6 -9.9 -9.999  85.3 -99.99  5.40
2019/06/27 05:00 EDT  -99.99 -99.99    2  348    3  79.0 -99.9 1020.6 -9.9 -9.999  85.7 -99.99  5.40
2019/06/27 05:06 EDT  -99.99 -99.99    1    6    2  79.0 -99.9 1020.5 -9.9 -9.999  86.6 -99.99  5.40
2019/06/27 05:12 EDT  -99.99 -99.99    1  359    2  78.8 -99.9 1020.5 -9.9 -9.999  87.5 -99.99  5.40
2019/06/27 05:18 EDT  -99.99 -99.99    2  324    2  78.8 -99.9 1020.5 -9.9 -9.999  88.4 -99.99  5.40
2019/06/27 05:24 EDT  -99.99 -99.99    2  344    2  78.6 -99.9 1020.5 -9.9 -9.999  88.6 -99.99  5.40
2019/06/27 05:30 EDT  -99.99 -99.99    1  357    2  78.8 -99.9 1020.5 -9.9 -9.999  89.2 -99.99  5.40
2019/06/27 05:36 EDT  -99.99 -99.99 -999 -999 -999 -99.9 -99.9 -999.9 -9.9 -9.999 -99.9 -99.99 -9.99
2019/06/27 05:42 EDT  -99.99 -99.99 -999 -999 -999 -99.9 -99.9 -999.9 -9.9 -9.999 -99.9 -99.99 -9.99

Revised: 08/08/2018
NOAA / National Ocean Service
Web site owner: Center for Operational Oceanographic Products and Services